Time,TemperatureF,DewpointF,PressureIn,WindDirection,WindDirectionDegrees,WindSpeedMPH,WindSpeedGustMPH,Humidity,HourlyPrecipIn,Conditions,Clouds,dailyrainin,SoftwareType,DateUTC
2013-02-11 00:00:00,44.7,41.4,29.84,SE,138,4.0,4.0,88,0.00,,,0.00,Wunderground v.1.15,2013-02-11 05:00:00,
2013-02-11 00:04:00,44.7,41.4,29.83,SW,221,5.0,6.0,88,0.00,,,0.00,Wunderground v.1.15,2013-02-11 05:04:00,
2013-02-11 00:05:00,44.7,41.4,29.83,SSE,161,5.0,6.0,88,0.00,,,0.00,Wunderground v.1.15,2013-02-11 05:05:00,
2013-02-11 00:06:00,44.7,41.4,29.83,SW,229,5.0,6.0,88,0.00,,,0.00,Wunderground v.1.15,2013-02-11 05:06:00,
2013-02-11 00:10:00,44.8,41.5,29.83,SSE,149,5.0,5.0,88,0.00,,,0.00,Wunderground v.1.15,2013-02-11 05:10:00,
2013-02-11 00:11:00,44.8,41.5,29.83,WSW,237,5.0,5.0,88,0.00,,,0.00,Wunderground v.1.15,2013-02-11 05:11:00,
2013-02-11 00:12:00,44.8,41.2,29.83,South,184,5.0,5.0,87,0.00,,,0.00,Wunderground v.1.15,2013-02-11 05:12:00,
2013-02-11 00:15:00,44.9,41.3,29.83,SSW,209,5.0,9.0,87,0.00,,,0.00,Wunderground v.1.15,2013-02-11 05:15:00,
2013-02-11 00:18:00,45.0,41.4,29.83,SSW,205,5.0,9.0,87,0.00,,,0.00,Wunderground v.1.15,2013-02-11 05:18:00,
2013-02-11 00:19:00,45.0,41.4,29.83,SE,146,5.0,9.0,87,0.00,,,0.00,Wunderground v.1.15,2013-02-11 05:19:00,
2013-02-11 00:20:00,45.0,41.4,29.83,WSW,246,4.0,4.0,87,0.00,,,0.00,Wunderground v.1.15,2013-02-11 05:20:00,
2013-02-11 00:22:00,45.0,41.4,29.83,WSW,238,5.0,6.0,87,0.00,,,0.00,Wunderground v.1.15,2013-02-11 05:22:00,
2013-02-11 00:25:00,45.0,41.4,29.83,SSW,206,5.0,6.0,87,0.00,,,0.00,Wunderground v.1.15,2013-02-11 05:25:00,
2013-02-11 00:26:00,45.0,41.4,29.83,SE,145,5.0,6.0,87,0.00,,,0.00,Wunderground v.1.15,2013-02-11 05:26:00,
2013-02-11 00:30:00,45.0,41.4,29.83,SW,229,5.0,5.0,87,0.00,,,0.00,Wunderground v.1.15,2013-02-11 05:30:00,
2013-02-11 00:31:00,45.0,41.4,29.83,South,179,5.0,5.0,87,0.00,,,0.00,Wunderground v.1.15,2013-02-11 05:31:00,
2013-02-11 00:32:00,45.0,41.4,29.83,SW,214,5.0,5.0,87,0.00,,,0.00,Wunderground v.1.15,2013-02-11 05:32:00,
2013-02-11 00:37:00,45.0,41.4,29.83,WSW,245,4.0,7.0,87,0.00,,,0.00,Wunderground v.1.15,2013-02-11 05:37:00,
2013-02-11 00:38:00,45.0,41.4,29.83,SE,126,3.0,7.0,87,0.00,,,0.00,Wunderground v.1.15,2013-02-11 05:38:00,
2013-02-11 00:41:00,45.0,41.4,29.83,SSE,161,3.0,4.0,87,0.00,,,0.00,Wunderground v.1.15,2013-02-11 05:41:00,
2013-02-11 00:42:00,45.0,41.4,29.83,ESE,109,3.0,5.0,87,0.00,,,0.00,Wunderground v.1.15,2013-02-11 05:42:00,
2013-02-11 00:43:00,45.0,41.7,29.83,SSE,153,3.0,5.0,88,0.00,,,0.00,Wunderground v.1.15,2013-02-11 05:43:00,
2013-02-11 00:48:00,45.0,41.7,29.83,ESE,119,3.0,5.0,88,0.00,,,0.00,Wunderground v.1.15,2013-02-11 05:48:00,
2013-02-11 00:50:00,45.0,41.7,29.83,SE,146,3.0,7.0,88,0.00,,,0.00,Wunderground v.1.15,2013-02-11 05:50:00,
2013-02-11 00:54:00,45.0,41.7,29.83,SSE,166,3.0,9.0,88,0.00,,,0.00,Wunderground v.1.15,2013-02-11 05:54:00,
2013-02-11 00:55:00,45.0,41.7,29.83,SE,132,3.0,9.0,88,0.00,,,0.00,Wunderground v.1.15,2013-02-11 05:55:00,
2013-02-11 00:57:00,45.0,41.7,29.83,SE,140,3.0,9.0,88,0.00,,,0.00,Wunderground v.1.15,2013-02-11 05:57:00,
2013-02-11 00:59:00,45.1,41.8,29.83,SE,130,4.0,9.0,88,0.00,,,0.00,Wunderground v.1.15,2013-02-11 05:59:00,
2013-02-11 01:01:00,45.1,41.8,29.82,SE,140,3.0,4.0,88,0.00,,,0.00,Wunderground v.1.15,2013-02-11 06:01:00,
2013-02-11 01:03:00,45.1,41.8,29.82,SE,137,3.0,4.0,88,0.00,,,0.00,Wunderground v.1.15,2013-02-11 06:03:00,
2013-02-11 01:05:00,45.0,42.0,29.82,ESE,121,3.0,4.0,89,0.00,,,0.00,Wunderground v.1.15,2013-02-11 06:05:00,
2013-02-11 01:08:00,45.0,42.0,29.82,WSW,241,3.0,5.0,89,0.00,,,0.00,Wunderground v.1.15,2013-02-11 06:08:00,
2013-02-11 01:09:00,45.0,42.0,29.82,SE,143,3.0,7.0,89,0.00,,,0.00,Wunderground v.1.15,2013-02-11 06:09:00,
2013-02-11 01:10:00,45.0,42.0,29.82,SE,128,3.0,3.0,89,0.00,,,0.00,Wunderground v.1.15,2013-02-11 06:10:00,
2013-02-11 01:15:00,44.9,42.1,29.82,ESE,121,3.0,5.0,90,0.00,,,0.00,Wunderground v.1.15,2013-02-11 06:15:00,
2013-02-11 01:16:00,44.8,42.0,29.82,SSE,168,3.0,5.0,90,0.00,,,0.00,Wunderground v.1.15,2013-02-11 06:16:00,
2013-02-11 01:17:00,44.8,42.0,29.82,SE,134,3.0,5.0,90,0.00,,,0.00,Wunderground v.1.15,2013-02-11 06:17:00,
2013-02-11 01:21:00,44.7,41.9,29.82,SSE,154,3.0,4.0,90,0.00,,,0.00,Wunderground v.1.15,2013-02-11 06:21:00,
2013-02-11 01:23:00,44.6,41.8,29.82,ESE,117,3.0,4.0,90,0.00,,,0.00,Wunderground v.1.15,2013-02-11 06:23:00,
2013-02-11 01:24:00,44.6,41.8,29.82,SE,130,3.0,4.0,90,0.00,,,0.00,Wunderground v.1.15,2013-02-11 06:24:00,
2013-02-11 01:27:00,44.6,42.1,29.82,SE,141,3.0,5.0,91,0.00,,,0.00,Wunderground v.1.15,2013-02-11 06:27:00,
2013-02-11 01:29:00,44.5,42.0,29.82,SSE,149,3.0,5.0,91,0.00,,,0.00,Wunderground v.1.15,2013-02-11 06:29:00,
2013-02-11 01:31:00,44.5,42.0,29.82,SSE,150,3.0,7.0,91,0.00,,,0.00,Wunderground v.1.15,2013-02-11 06:31:00,
2013-02-11 01:33:00,44.5,42.0,29.82,SSW,211,3.0,7.0,91,0.00,,,0.00,Wunderground v.1.15,2013-02-11 06:33:00,
2013-02-11 01:34:00,44.5,42.0,29.82,SW,218,3.0,7.0,91,0.00,,,0.00,Wunderground v.1.15,2013-02-11 06:34:00,
2013-02-11 01:39:00,44.3,41.8,29.82,South,188,3.0,7.0,91,0.00,,,0.00,Wunderground v.1.15,2013-02-11 06:39:00,
2013-02-11 01:41:00,44.3,41.8,29.82,SSE,150,2.0,2.0,91,0.00,,,0.00,Wunderground v.1.15,2013-02-11 06:41:00,
2013-02-11 01:42:00,44.2,41.7,29.82,SW,219,2.0,2.0,91,0.00,,,0.00,Wunderground v.1.15,2013-02-11 06:42:00,
2013-02-11 01:47:00,44.1,41.6,29.82,SE,126,2.0,5.0,91,0.00,,,0.00,Wunderground v.1.15,2013-02-11 06:47:00,
2013-02-11 01:48:00,44.1,41.6,29.82,SSE,151,2.0,5.0,91,0.00,,,0.00,Wunderground v.1.15,2013-02-11 06:48:00,
2013-02-11 01:49:00,44.1,41.6,29.82,SSW,204,2.0,5.0,91,0.00,,,0.00,Wunderground v.1.15,2013-02-11 06:49:00,
2013-02-11 01:50:00,44.0,41.5,29.82,SE,140,2.0,4.0,91,0.00,,,0.00,Wunderground v.1.15,2013-02-11 06:50:00,
2013-02-11 01:54:00,44.0,41.5,29.82,South,171,2.0,4.0,91,0.00,,,0.00,Wunderground v.1.15,2013-02-11 06:54:00,
2013-02-11 01:56:00,43.9,41.7,29.82,SW,220,2.0,4.0,92,0.00,,,0.00,Wunderground v.1.15,2013-02-11 06:56:00,
2013-02-11 01:57:00,44.0,41.8,29.82,SE,128,2.0,6.0,92,0.00,,,0.00,Wunderground v.1.15,2013-02-11 06:57:00,
2013-02-11 02:00:00,44.0,41.8,29.82,SW,228,2.0,3.0,92,0.00,,,0.00,Wunderground v.1.15,2013-02-11 07:00:00,
2013-02-11 02:04:00,44.2,42.0,29.81,SW,223,2.0,9.0,92,0.00,,,0.00,Wunderground v.1.15,2013-02-11 07:04:00,
2013-02-11 02:05:00,44.1,41.9,29.81,SE,139,2.0,9.0,92,0.00,,,0.00,Wunderground v.1.15,2013-02-11 07:05:00,
2013-02-11 02:06:00,44.1,41.9,29.81,SW,230,2.0,9.0,92,0.00,,,0.00,Wunderground v.1.15,2013-02-11 07:06:00,
2013-02-11 02:12:00,44.3,42.1,29.81,SSE,153,2.0,2.0,92,0.00,,,0.00,Wunderground v.1.15,2013-02-11 07:12:00,
2013-02-11 02:13:00,44.3,42.1,29.81,SE,134,2.0,6.0,92,0.00,,,0.00,Wunderground v.1.15,2013-02-11 07:13:00,
2013-02-11 02:14:00,44.3,42.1,29.81,SE,129,2.0,6.0,92,0.00,,,0.00,Wunderground v.1.15,2013-02-11 07:14:00,
2013-02-11 02:17:00,44.4,42.2,29.81,SSE,150,2.0,6.0,92,0.00,,,0.00,Wunderground v.1.15,2013-02-11 07:17:00,
2013-02-11 02:19:00,44.5,42.3,29.81,ESE,110,2.0,6.0,92,0.00,,,0.00,Wunderground v.1.15,2013-02-11 07:19:00,
2013-02-11 02:20:00,44.5,42.3,29.81,South,171,2.0,2.0,92,0.00,,,0.00,Wunderground v.1.15,2013-02-11 07:20:00,
2013-02-11 02:22:00,44.6,42.4,29.80,SW,221,2.0,2.0,92,0.00,,,0.00,Wunderground v.1.15,2013-02-11 07:22:00,
2013-02-11 02:24:00,44.6,42.4,29.81,ESE,104,2.0,4.0,92,0.00,,,0.00,Wunderground v.1.15,2013-02-11 07:24:00,
2013-02-11 02:26:00,44.7,42.5,29.81,SE,139,2.0,4.0,92,0.00,,,0.00,Wunderground v.1.15,2013-02-11 07:26:00,
2013-02-11 02:28:00,44.8,42.6,29.81,SSE,161,2.0,4.0,92,0.00,,,0.00,Wunderground v.1.15,2013-02-11 07:28:00,
2013-02-11 02:31:00,44.8,42.6,29.81,SE,144,2.0,5.0,92,0.00,,,0.00,Wunderground v.1.15,2013-02-11 07:31:00,
2013-02-11 02:34:00,44.9,42.7,29.81,WSW,241,2.0,5.0,92,0.00,,,0.00,Wunderground v.1.15,2013-02-11 07:34:00,
2013-02-11 02:37:00,44.9,42.7,29.81,SSW,203,2.0,5.0,92,0.00,,,0.00,Wunderground v.1.15,2013-02-11 07:37:00,
2013-02-11 02:38:00,44.9,42.7,29.81,SW,215,2.0,5.0,92,0.00,,,0.00,Wunderground v.1.15,2013-02-11 07:38:00,
2013-02-11 02:39:00,45.0,42.8,29.81,SW,230,2.0,5.0,92,0.00,,,0.00,Wunderground v.1.15,2013-02-11 07:39:00,
2013-02-11 02:40:00,45.0,42.8,29.81,SSE,159,2.0,4.0,92,0.00,,,0.00,Wunderground v.1.15,2013-02-11 07:40:00,
2013-02-11 02:43:00,45.0,43.1,29.81,SE,126,2.0,4.0,93,0.00,,,0.00,Wunderground v.1.15,2013-02-11 07:43:00,
2013-02-11 02:45:00,45.2,43.3,29.81,ESE,114,2.0,6.0,93,0.00,,,0.00,Wunderground v.1.15,2013-02-11 07:45:00,
2013-02-11 02:48:00,45.5,43.6,29.81,WNW,283,3.0,7.0,93,0.00,,,0.00,Wunderground v.1.15,2013-02-11 07:48:00,
2013-02-11 02:49:00,45.6,43.7,29.81,WNW,303,2.0,7.0,93,0.00,,,0.00,Wunderground v.1.15,2013-02-11 07:49:00,
2013-02-11 02:52:00,45.9,44.0,29.80,West,263,3.0,4.0,93,0.00,,,0.00,Wunderground v.1.15,2013-02-11 07:52:00,
2013-02-11 02:54:00,46.1,44.2,29.80,SSW,212,3.0,5.0,93,0.00,,,0.00,Wunderground v.1.15,2013-02-11 07:54:00,
2013-02-11 02:56:00,46.5,44.9,29.80,SSW,203,3.0,5.0,94,0.00,,,0.00,Wunderground v.1.15,2013-02-11 07:56:00,
2013-02-11 02:58:00,46.7,45.1,29.80,ESE,117,3.0,5.0,94,0.00,,,0.00,Wunderground v.1.15,2013-02-11 07:58:00,
2013-02-11 02:59:00,46.7,44.8,29.80,SSE,164,3.0,5.0,93,0.00,,,0.00,Wunderground v.1.15,2013-02-11 07:59:00,
2013-02-11 03:03:00,47.0,45.1,29.80,SW,219,4.0,7.0,93,0.00,,,0.00,Wunderground v.1.15,2013-02-11 08:03:00,
2013-02-11 03:04:00,47.1,45.2,29.79,WSW,253,4.0,7.0,93,0.00,,,0.00,Wunderground v.1.15,2013-02-11 08:04:00,
2013-02-11 03:05:00,47.1,45.2,29.79,SW,228,4.0,7.0,93,0.00,,,0.00,Wunderground v.1.15,2013-02-11 08:05:00,
2013-02-11 03:08:00,47.2,45.3,29.80,SE,132,4.0,7.0,93,0.00,,,0.00,Wunderground v.1.15,2013-02-11 08:08:00,
2013-02-11 03:12:00,47.2,45.3,29.80,SSW,213,3.0,7.0,93,0.00,,,0.00,Wunderground v.1.15,2013-02-11 08:12:00,
2013-02-11 03:13:00,47.2,45.3,29.80,WSW,252,3.0,7.0,93,0.00,,,0.00,Wunderground v.1.15,2013-02-11 08:13:00,
2013-02-11 03:15:00,47.2,45.3,29.80,South,169,3.0,8.0,93,0.00,,,0.00,Wunderground v.1.15,2013-02-11 08:15:00,
2013-02-11 03:19:00,47.2,45.3,29.80,SW,236,3.0,8.0,93,0.00,,,0.00,Wunderground v.1.15,2013-02-11 08:19:00,
2013-02-11 03:20:00,47.2,45.3,29.79,WSW,241,3.0,3.0,93,0.00,,,0.00,Wunderground v.1.15,2013-02-11 08:20:00,
2013-02-11 03:21:00,47.2,45.3,29.79,SSE,165,3.0,5.0,93,0.00,,,0.00,Wunderground v.1.15,2013-02-11 08:21:00,
2013-02-11 03:24:00,47.2,45.3,29.79,South,175,3.0,5.0,93,0.00,,,0.00,Wunderground v.1.15,2013-02-11 08:24:00,
2013-02-11 03:28:00,47.2,45.3,29.79,SSE,150,3.0,6.0,93,0.00,,,0.00,Wunderground v.1.15,2013-02-11 08:28:00,
2013-02-11 03:30:00,47.3,45.4,29.79,SW,235,3.0,3.0,93,0.00,,,0.00,Wunderground v.1.15,2013-02-11 08:30:00,
2013-02-11 03:31:00,47.3,45.4,29.78,SSE,153,3.0,4.0,93,0.00,,,0.00,Wunderground v.1.15,2013-02-11 08:31:00,
2013-02-11 03:32:00,47.3,45.4,29.78,WSW,238,3.0,4.0,93,0.00,,,0.00,Wunderground v.1.15,2013-02-11 08:32:00,
2013-02-11 03:33:00,47.3,45.4,29.78,WSW,244,3.0,7.0,93,0.00,,,0.00,Wunderground v.1.15,2013-02-11 08:33:00,
2013-02-11 03:36:00,47.3,45.4,29.79,WSW,248,3.0,7.0,93,0.00,,,0.00,Wunderground v.1.15,2013-02-11 08:36:00,
2013-02-11 03:39:00,47.3,45.4,29.78,ESE,122,3.0,7.0,93,0.00,,,0.00,Wunderground v.1.15,2013-02-11 08:39:00,
2013-02-11 03:41:00,47.3,45.4,29.78,West,263,3.0,3.0,93,0.00,,,0.00,Wunderground v.1.15,2013-02-11 08:41:00,
2013-02-11 03:45:00,47.4,45.5,29.78,WSW,257,3.0,3.0,93,0.00,,,0.00,Wunderground v.1.15,2013-02-11 08:45:00,
2013-02-11 03:46:00,47.4,45.5,29.78,SE,146,3.0,3.0,93,0.00,,,0.00,Wunderground v.1.15,2013-02-11 08:46:00,
2013-02-11 03:47:00,47.4,45.5,29.78,East,98,3.0,4.0,93,0.00,,,0.00,Wunderground v.1.15,2013-02-11 08:47:00,
2013-02-11 03:48:00,47.4,45.5,29.78,WSW,258,3.0,6.0,93,0.00,,,0.00,Wunderground v.1.15,2013-02-11 08:48:00,
2013-02-11 03:53:00,47.3,45.4,29.78,SE,140,2.0,10.0,93,0.00,,,0.00,Wunderground v.1.15,2013-02-11 08:53:00,
2013-02-11 03:54:00,47.4,45.5,29.78,SE,141,3.0,10.0,93,0.00,,,0.00,Wunderground v.1.15,2013-02-11 08:54:00,
2013-02-11 03:55:00,47.3,45.4,29.78,WSW,250,3.0,10.0,93,0.00,,,0.00,Wunderground v.1.15,2013-02-11 08:55:00,
2013-02-11 04:08:00,47.2,45.3,29.78,SE,137,1.0,1.0,93,0.00,,,0.00,Wunderground v.1.15,2013-02-11 09:08:00,
2013-02-11 04:09:00,47.2,45.3,29.77,South,172,1.0,2.0,93,0.00,,,0.00,Wunderground v.1.15,2013-02-11 09:09:00,
2013-02-11 04:11:00,47.2,45.3,29.77,SE,132,1.0,2.0,93,0.00,,,0.00,Wunderground v.1.15,2013-02-11 09:11:00,
2013-02-11 04:13:00,47.3,45.4,29.77,West,267,2.0,4.0,93,0.00,,,0.00,Wunderground v.1.15,2013-02-11 09:13:00,
2013-02-11 04:14:00,47.3,45.4,29.77,WSW,245,2.0,5.0,93,0.00,,,0.00,Wunderground v.1.15,2013-02-11 09:14:00,
2013-02-11 04:16:00,47.3,45.4,29.77,SE,133,2.0,6.0,93,0.00,,,0.00,Wunderground v.1.15,2013-02-11 09:16:00,
2013-02-11 04:17:00,47.3,45.4,29.77,SE,138,2.0,6.0,93,0.00,,,0.00,Wunderground v.1.15,2013-02-11 09:17:00,
2013-02-11 04:19:00,47.3,45.4,29.77,WSW,240,3.0,4.0,93,0.00,,,0.00,Wunderground v.1.15,2013-02-11 09:19:00,
2013-02-11 04:21:00,47.4,45.5,29.77,SSW,194,3.0,4.0,93,0.00,,,0.00,Wunderground v.1.15,2013-02-11 09:21:00,
2013-02-11 04:23:00,47.4,45.5,29.77,SW,233,3.0,4.0,93,0.00,,,0.00,Wunderground v.1.15,2013-02-11 09:23:00,
2013-02-11 04:24:00,47.4,45.5,29.77,ENE,69,3.0,4.0,93,0.00,,,0.00,Wunderground v.1.15,2013-02-11 09:24:00,
2013-02-11 04:29:00,47.3,45.4,29.76,SE,142,2.0,4.0,93,0.00,,,0.00,Wunderground v.1.15,2013-02-11 09:29:00,
2013-02-11 04:30:00,47.3,45.4,29.76,ESE,121,2.0,8.0,93,0.00,,,0.00,Wunderground v.1.15,2013-02-11 09:30:00,
2013-02-11 04:35:00,47.4,45.8,29.76,SSW,202,2.0,8.0,94,0.00,,,0.00,Wunderground v.1.15,2013-02-11 09:35:00,
2013-02-11 04:36:00,47.4,45.8,29.76,SSW,213,2.0,8.0,94,0.00,,,0.00,Wunderground v.1.15,2013-02-11 09:36:00,
2013-02-11 04:39:00,47.5,45.9,29.76,SW,235,2.0,3.0,94,0.00,,,0.00,Wunderground v.1.15,2013-02-11 09:39:00,
2013-02-11 04:41:00,47.5,45.9,29.76,SSE,158,2.0,3.0,94,0.00,,,0.00,Wunderground v.1.15,2013-02-11 09:41:00,
2013-02-11 04:42:00,47.5,45.9,29.76,SSW,196,2.0,3.0,94,0.00,,,0.00,Wunderground v.1.15,2013-02-11 09:42:00,
2013-02-11 04:44:00,47.5,45.9,29.76,SW,217,2.0,5.0,94,0.00,,,0.00,Wunderground v.1.15,2013-02-11 09:44:00,
2013-02-11 04:45:00,47.6,46.0,29.76,SW,224,2.0,5.0,94,0.00,,,0.00,Wunderground v.1.15,2013-02-11 09:45:00,
2013-02-11 04:47:00,47.6,46.0,29.76,West,260,2.0,5.0,94,0.00,,,0.00,Wunderground v.1.15,2013-02-11 09:47:00,
2013-02-11 04:50:00,47.5,45.9,29.76,ESE,120,2.0,2.0,94,0.00,,,0.00,Wunderground v.1.15,2013-02-11 09:50:00,
2013-02-11 04:51:00,47.5,45.9,29.76,WSW,244,2.0,2.0,94,0.00,,,0.00,Wunderground v.1.15,2013-02-11 09:51:00,
2013-02-11 04:54:00,47.4,45.8,29.76,SSW,213,2.0,2.0,94,0.00,,,0.00,Wunderground v.1.15,2013-02-11 09:54:00,
2013-02-11 04:56:00,47.3,45.7,29.76,SW,226,2.0,2.0,94,0.00,,,0.00,Wunderground v.1.15,2013-02-11 09:56:00,
2013-02-11 04:57:00,47.3,45.7,29.76,South,179,2.0,2.0,94,0.00,,,0.00,Wunderground v.1.15,2013-02-11 09:57:00,
2013-02-11 05:02:00,47.0,45.4,29.76,SW,222,1.0,9.0,94,0.00,,,0.00,Wunderground v.1.15,2013-02-11 10:02:00,
2013-02-11 05:03:00,47.0,45.4,29.76,NE,44,1.0,9.0,94,0.00,,,0.00,Wunderground v.1.15,2013-02-11 10:03:00,
2013-02-11 05:06:00,47.0,45.4,29.76,WSW,250,2.0,9.0,94,0.00,,,0.00,Wunderground v.1.15,2013-02-11 10:06:00,
2013-02-11 05:09:00,46.9,45.3,29.76,SW,230,2.0,9.0,94,0.00,,,0.00,Wunderground v.1.15,2013-02-11 10:09:00,
2013-02-11 05:10:00,46.8,45.2,29.76,SSW,213,2.0,2.0,94,0.00,,,0.00,Wunderground v.1.15,2013-02-11 10:10:00,
2013-02-11 05:14:00,46.8,45.2,29.76,SW,225,3.0,7.0,94,0.00,,,0.00,Wunderground v.1.15,2013-02-11 10:14:00,
2013-02-11 05:16:00,46.8,45.2,29.76,ESE,114,2.0,7.0,94,0.00,,,0.00,Wunderground v.1.15,2013-02-11 10:16:00,
2013-02-11 05:19:00,46.8,45.2,29.76,SSE,156,2.0,7.0,94,0.00,,,0.00,Wunderground v.1.15,2013-02-11 10:19:00,
2013-02-11 05:20:00,46.8,45.2,29.76,SSE,147,2.0,2.0,94,0.00,,,0.00,Wunderground v.1.15,2013-02-11 10:20:00,
2013-02-11 05:21:00,46.8,45.2,29.76,SSE,154,2.0,2.0,94,0.00,,,0.00,Wunderground v.1.15,2013-02-11 10:21:00,
2013-02-11 05:25:00,46.7,45.1,29.76,SE,139,2.0,2.0,94,0.00,,,0.00,Wunderground v.1.15,2013-02-11 10:25:00,
2013-02-11 05:28:00,46.5,44.9,29.76,South,176,1.0,2.0,94,0.00,,,0.00,Wunderground v.1.15,2013-02-11 10:28:00,
2013-02-11 05:30:00,46.4,44.8,29.76,SSW,209,1.0,2.0,94,0.00,,,0.00,Wunderground v.1.15,2013-02-11 10:30:00,
2013-02-11 05:33:00,46.3,44.7,29.76,NW,320,1.0,2.0,94,0.00,,,0.00,Wunderground v.1.15,2013-02-11 10:33:00,
2013-02-11 05:34:00,46.2,44.6,29.76,NNW,331,1.0,2.0,94,0.00,,,0.00,Wunderground v.1.15,2013-02-11 10:34:00,
2013-02-11 05:36:00,46.1,44.5,29.76,SE,133,1.0,2.0,94,0.00,,,0.00,Wunderground v.1.15,2013-02-11 10:36:00,
2013-02-11 05:37:00,46.1,44.5,29.76,SW,216,1.0,2.0,94,0.00,,,0.00,Wunderground v.1.15,2013-02-11 10:37:00,
2013-02-11 05:40:00,46.0,44.4,29.76,SW,227,1.0,3.0,94,0.00,,,0.00,Wunderground v.1.15,2013-02-11 10:40:00,
2013-02-11 05:41:00,45.9,44.3,29.76,SW,227,1.0,3.0,94,0.00,,,0.00,Wunderground v.1.15,2013-02-11 10:41:00,
2013-02-11 05:43:00,45.9,44.3,29.76,SW,230,1.0,3.0,94,0.00,,,0.00,Wunderground v.1.15,2013-02-11 10:43:00,
2013-02-11 05:44:00,45.8,44.2,29.76,SSE,157,1.0,3.0,94,0.00,,,0.00,Wunderground v.1.15,2013-02-11 10:44:00,
2013-02-11 05:45:00,45.9,44.3,29.76,WSW,239,1.0,4.0,94,0.00,,,0.00,Wunderground v.1.15,2013-02-11 10:45:00,
2013-02-11 05:49:00,45.9,44.3,29.75,SE,136,1.0,4.0,94,0.00,,,0.00,Wunderground v.1.15,2013-02-11 10:49:00,
2013-02-11 05:51:00,45.9,44.3,29.76,WSW,244,1.0,2.0,94,0.00,,,0.00,Wunderground v.1.15,2013-02-11 10:51:00,
2013-02-11 05:52:00,45.9,44.3,29.75,WSW,244,2.0,2.0,94,0.00,,,0.00,Wunderground v.1.15,2013-02-11 10:52:00,
2013-02-11 05:55:00,45.8,44.2,29.76,SSW,202,1.0,5.0,94,0.00,,,0.00,Wunderground v.1.15,2013-02-11 10:55:00,
2013-02-11 05:57:00,45.8,44.2,29.76,SSW,192,2.0,5.0,94,0.00,,,0.00,Wunderground v.1.15,2013-02-11 10:57:00,
2013-02-11 05:58:00,45.8,44.2,29.75,South,178,2.0,5.0,94,0.00,,,0.00,Wunderground v.1.15,2013-02-11 10:58:00,
2013-02-11 06:04:00,45.6,44.0,29.76,SW,232,2.0,2.0,94,0.00,,,0.00,Wunderground v.1.15,2013-02-11 11:04:00,
2013-02-11 06:06:00,45.6,44.3,29.76,SSE,165,2.0,2.0,95,0.00,,,0.00,Wunderground v.1.15,2013-02-11 11:06:00,
2013-02-11 06:10:00,45.5,44.2,29.76,SSW,213,2.0,2.0,95,0.00,,,0.00,Wunderground v.1.15,2013-02-11 11:10:00,
2013-02-11 06:11:00,45.5,44.2,29.76,SW,222,2.0,6.0,95,0.00,,,0.00,Wunderground v.1.15,2013-02-11 11:11:00,
2013-02-11 06:12:00,45.5,43.9,29.76,SE,125,2.0,6.0,94,0.00,,,0.00,Wunderground v.1.15,2013-02-11 11:12:00,
2013-02-11 06:13:00,45.5,43.9,29.76,SW,232,2.0,6.0,94,0.00,,,0.00,Wunderground v.1.15,2013-02-11 11:13:00,
2013-02-11 06:15:00,45.4,43.8,29.76,SW,228,2.0,6.0,94,0.00,,,0.00,Wunderground v.1.15,2013-02-11 11:15:00,
2013-02-11 06:16:00,45.4,43.8,29.76,WSW,241,2.0,6.0,94,0.00,,,0.00,Wunderground v.1.15,2013-02-11 11:16:00,
2013-02-11 06:19:00,45.3,43.7,29.76,SE,140,2.0,6.0,94,0.00,,,0.00,Wunderground v.1.15,2013-02-11 11:19:00,
2013-02-11 06:21:00,45.3,43.7,29.75,WSW,252,2.0,2.0,94,0.00,,,0.00,Wunderground v.1.15,2013-02-11 11:21:00,
2013-02-11 06:23:00,45.2,43.9,29.75,West,268,1.0,6.0,95,0.00,,,0.00,Wunderground v.1.15,2013-02-11 11:23:00,
2013-02-11 06:24:00,45.3,44.0,29.75,WSW,254,1.0,6.0,95,0.00,,,0.00,Wunderground v.1.15,2013-02-11 11:24:00,
2013-02-11 06:27:00,45.3,44.0,29.75,SW,221,2.0,6.0,95,0.00,,,0.00,Wunderground v.1.15,2013-02-11 11:27:00,
2013-02-11 06:29:00,45.3,44.0,29.75,SW,217,2.0,6.0,95,0.00,,,0.00,Wunderground v.1.15,2013-02-11 11:29:00,
2013-02-11 06:32:00,45.3,44.0,29.76,SSW,198,2.0,5.0,95,0.00,,,0.00,Wunderground v.1.15,2013-02-11 11:32:00,
2013-02-11 06:33:00,45.3,44.0,29.75,South,191,2.0,5.0,95,0.00,,,0.00,Wunderground v.1.15,2013-02-11 11:33:00,
2013-02-11 06:35:00,45.3,44.0,29.75,SW,227,1.0,5.0,95,0.00,,,0.00,Wunderground v.1.15,2013-02-11 11:35:00,
2013-02-11 06:38:00,45.2,43.9,29.75,SSE,167,1.0,5.0,95,0.00,,,0.00,Wunderground v.1.15,2013-02-11 11:38:00,
2013-02-11 06:40:00,45.3,44.0,29.75,SW,219,1.0,2.0,95,0.00,,,0.00,Wunderground v.1.15,2013-02-11 11:40:00,
2013-02-11 06:41:00,45.2,43.9,29.75,SSW,203,1.0,3.0,95,0.00,,,0.00,Wunderground v.1.15,2013-02-11 11:41:00,
2013-02-11 06:46:00,45.4,44.1,29.75,SW,222,1.0,7.0,95,0.00,,,0.00,Wunderground v.1.15,2013-02-11 11:46:00,
2013-02-11 06:47:00,45.4,44.1,29.75,West,261,2.0,7.0,95,0.00,,,0.00,Wunderground v.1.15,2013-02-11 11:47:00,
2013-02-11 06:48:00,45.4,44.1,29.75,West,273,2.0,7.0,95,0.00,,,0.00,Wunderground v.1.15,2013-02-11 11:48:00,
2013-02-11 06:52:00,45.4,44.1,29.75,South,170,2.0,4.0,95,0.00,,,0.00,Wunderground v.1.15,2013-02-11 11:52:00,
2013-02-11 06:54:00,45.5,44.2,29.75,SSE,164,2.0,4.0,95,0.00,,,0.00,Wunderground v.1.15,2013-02-11 11:54:00,
2013-02-11 06:55:00,45.5,44.2,29.75,NW,321,3.0,4.0,95,0.00,,,0.00,Wunderground v.1.15,2013-02-11 11:55:00,
2013-02-11 06:59:00,45.8,44.4,29.75,SW,232,3.0,5.0,95,0.00,,,0.00,Wunderground v.1.15,2013-02-11 11:59:00,
2013-02-11 07:00:00,45.9,44.5,29.75,SW,215,3.0,4.0,95,0.00,,,0.00,Wunderground v.1.15,2013-02-11 12:00:00,
2013-02-11 07:04:00,46.3,44.9,29.75,SSW,213,4.0,5.0,95,0.00,,,0.00,Wunderground v.1.15,2013-02-11 12:04:00,
2013-02-11 07:06:00,46.5,45.1,29.75,West,278,4.0,6.0,95,0.00,,,0.00,Wunderground v.1.15,2013-02-11 12:06:00,
2013-02-11 07:07:00,46.6,45.2,29.75,WSW,241,5.0,6.0,95,0.00,,,0.00,Wunderground v.1.15,2013-02-11 12:07:00,
2013-02-11 07:09:00,46.8,45.2,29.75,SE,144,5.0,7.0,94,0.00,,,0.00,Wunderground v.1.15,2013-02-11 12:09:00,
2013-02-11 07:13:00,47.1,45.5,29.75,WSW,240,5.0,7.0,94,0.00,,,0.00,Wunderground v.1.15,2013-02-11 12:13:00,
2013-02-11 07:16:00,47.3,45.4,29.75,SW,217,5.0,8.0,93,0.00,,,0.00,Wunderground v.1.15,2013-02-11 12:16:00,
2013-02-11 07:17:00,47.3,45.4,29.75,SW,215,5.0,8.0,93,0.00,,,0.00,Wunderground v.1.15,2013-02-11 12:17:00,
2013-02-11 07:18:00,47.3,45.4,29.75,South,176,5.0,8.0,93,0.00,,,0.00,Wunderground v.1.15,2013-02-11 12:18:00,
2013-02-11 07:21:00,47.3,45.1,29.75,South,191,5.0,8.0,92,0.00,,,0.00,Wunderground v.1.15,2013-02-11 12:21:00,
2013-02-11 07:23:00,47.4,45.2,29.75,SW,218,5.0,8.0,92,0.00,,,0.00,Wunderground v.1.15,2013-02-11 12:23:00,
2013-02-11 07:24:00,47.4,45.2,29.75,SSW,200,5.0,8.0,92,0.00,,,0.00,Wunderground v.1.15,2013-02-11 12:24:00,
2013-02-11 07:28:00,47.4,44.9,29.75,SE,131,5.0,8.0,91,0.00,,,0.00,Wunderground v.1.15,2013-02-11 12:28:00,
2013-02-11 07:30:00,47.4,44.9,29.75,SW,225,5.0,5.0,91,0.00,,,0.00,Wunderground v.1.15,2013-02-11 12:30:00,
2013-02-11 07:33:00,47.5,44.7,29.75,South,174,5.0,7.0,90,0.00,,,0.00,Wunderground v.1.15,2013-02-11 12:33:00,
2013-02-11 07:34:00,47.5,44.7,29.75,SW,217,5.0,7.0,90,0.00,,,0.00,Wunderground v.1.15,2013-02-11 12:34:00,
2013-02-11 07:35:00,47.5,44.7,29.75,SSE,158,5.0,7.0,90,0.00,,,0.00,Wunderground v.1.15,2013-02-11 12:35:00,
2013-02-11 07:36:00,47.5,44.4,29.75,WSW,252,5.0,7.0,89,0.00,,,0.00,Wunderground v.1.15,2013-02-11 12:36:00,
2013-02-11 07:39:00,47.5,44.4,29.76,SSE,155,4.0,7.0,89,0.00,,,0.00,Wunderground v.1.15,2013-02-11 12:39:00,
2013-02-11 07:42:00,47.5,44.1,29.76,SSW,202,4.0,7.0,88,0.00,,,0.00,Wunderground v.1.15,2013-02-11 12:42:00,
2013-02-11 07:43:00,47.4,44.0,29.76,SW,236,4.0,7.0,88,0.00,,,0.00,Wunderground v.1.15,2013-02-11 12:43:00,
2013-02-11 07:48:00,47.4,44.0,29.76,WSW,241,4.0,7.0,88,0.00,,,0.00,Wunderground v.1.15,2013-02-11 12:48:00,
2013-02-11 07:49:00,47.4,44.0,29.76,West,281,4.0,7.0,88,0.00,,,0.00,Wunderground v.1.15,2013-02-11 12:49:00,
2013-02-11 07:51:00,47.4,44.0,29.76,SW,223,4.0,6.0,88,0.00,,,0.00,Wunderground v.1.15,2013-02-11 12:51:00,
2013-02-11 07:55:00,47.6,43.9,29.75,West,281,4.0,6.0,87,0.00,,,0.00,Wunderground v.1.15,2013-02-11 12:55:00,
2013-02-11 07:57:00,47.7,43.7,29.75,South,169,4.0,6.0,86,0.00,,,0.00,Wunderground v.1.15,2013-02-11 12:57:00,
2013-02-11 08:00:00,47.7,43.7,29.75,ESE,121,4.0,4.0,86,0.00,,,0.00,Wunderground v.1.15,2013-02-11 13:00:00,
2013-02-11 08:01:00,47.7,43.7,29.75,SE,141,3.0,4.0,86,0.00,,,0.00,Wunderground v.1.15,2013-02-11 13:01:00,
2013-02-11 08:07:00,47.6,43.9,29.75,SSW,209,4.0,9.0,87,0.00,,,0.00,Wunderground v.1.15,2013-02-11 13:07:00,
2013-02-11 08:09:00,47.6,43.9,29.75,SSE,149,4.0,9.0,87,0.00,,,0.00,Wunderground v.1.15,2013-02-11 13:09:00,
2013-02-11 08:10:00,47.6,43.9,29.75,SSW,202,4.0,5.0,87,0.00,,,0.00,Wunderground v.1.15,2013-02-11 13:10:00,
2013-02-11 08:13:00,47.9,43.9,29.75,WSW,244,4.0,8.0,86,0.00,,,0.00,Wunderground v.1.15,2013-02-11 13:13:00,
2013-02-11 08:14:00,48.0,44.0,29.75,WSW,237,5.0,8.0,86,0.00,,,0.00,Wunderground v.1.15,2013-02-11 13:14:00,
2013-02-11 08:18:00,48.4,44.1,29.75,SSW,209,5.0,11.0,85,0.00,,,0.00,Wunderground v.1.15,2013-02-11 13:18:00,
2013-02-11 08:19:00,48.5,43.9,29.75,SW,215,5.0,11.0,84,0.00,,,0.00,Wunderground v.1.15,2013-02-11 13:19:00,
2013-02-11 08:21:00,48.7,44.1,29.75,South,190,5.0,6.0,84,0.00,,,0.00,Wunderground v.1.15,2013-02-11 13:21:00,
2013-02-11 08:22:00,48.8,44.2,29.75,SW,232,5.0,6.0,84,0.00,,,0.00,Wunderground v.1.15,2013-02-11 13:22:00,
2013-02-11 08:24:00,48.9,44.0,29.76,South,190,5.0,6.0,83,0.00,,,0.00,Wunderground v.1.15,2013-02-11 13:24:00,
2013-02-11 08:26:00,49.1,44.2,29.76,WSW,244,5.0,6.0,83,0.00,,,0.00,Wunderground v.1.15,2013-02-11 13:26:00,
2013-02-11 08:27:00,49.2,44.3,29.76,SSW,196,5.0,7.0,83,0.00,,,0.00,Wunderground v.1.15,2013-02-11 13:27:00,
2013-02-11 08:32:00,49.5,44.2,29.76,SW,234,6.0,11.0,82,0.00,,,0.00,Wunderground v.1.15,2013-02-11 13:32:00,
2013-02-11 08:33:00,49.6,44.3,29.76,WSW,257,6.0,11.0,82,0.00,,,0.00,Wunderground v.1.15,2013-02-11 13:33:00,
2013-02-11 08:34:00,49.6,44.3,29.76,SW,233,6.0,11.0,82,0.00,,,0.00,Wunderground v.1.15,2013-02-11 13:34:00,
2013-02-11 08:37:00,49.8,44.5,29.76,WSW,245,6.0,11.0,82,0.00,,,0.00,Wunderground v.1.15,2013-02-11 13:37:00,
2013-02-11 08:39:00,50.0,44.7,29.76,SSW,206,6.0,11.0,82,0.00,,,0.00,Wunderground v.1.15,2013-02-11 13:39:00,
2013-02-11 08:42:00,50.3,44.7,29.76,SSW,211,6.0,6.0,81,0.00,,,0.00,Wunderground v.1.15,2013-02-11 13:42:00,
2013-02-11 08:43:00,50.4,44.8,29.76,SSE,159,6.0,6.0,81,0.00,,,0.00,Wunderground v.1.15,2013-02-11 13:43:00,
2013-02-11 08:46:00,50.5,44.6,29.76,SW,221,6.0,8.0,80,0.00,,,0.00,Wunderground v.1.15,2013-02-11 13:46:00,
2013-02-11 08:47:00,50.6,44.3,29.76,SE,146,7.0,8.0,79,0.00,,,0.00,Wunderground v.1.15,2013-02-11 13:47:00,
2013-02-11 08:50:00,50.8,44.5,29.76,WSW,250,7.0,7.0,79,0.00,,,0.00,Wunderground v.1.15,2013-02-11 13:50:00,
2013-02-11 08:52:00,50.9,44.3,29.76,WSW,255,7.0,8.0,78,0.00,,,0.00,Wunderground v.1.15,2013-02-11 13:52:00,
2013-02-11 08:53:00,50.9,44.3,29.76,ESE,105,7.0,8.0,78,0.00,,,0.00,Wunderground v.1.15,2013-02-11 13:53:00,
2013-02-11 08:55:00,51.0,44.0,29.76,WSW,240,7.0,10.0,77,0.00,,,0.00,Wunderground v.1.15,2013-02-11 13:55:00,
2013-02-11 09:00:00,51.1,43.4,29.76,East,90,7.0,11.0,75,0.00,,,0.00,Wunderground v.1.15,2013-02-11 14:00:00,
2013-02-11 09:01:00,51.1,43.1,29.76,SE,145,8.0,11.0,74,0.00,,,0.00,Wunderground v.1.15,2013-02-11 14:01:00,
2013-02-11 09:03:00,50.9,42.9,29.76,NW,316,8.0,11.0,74,0.00,,,0.00,Wunderground v.1.15,2013-02-11 14:03:00,
2013-02-11 09:04:00,50.8,43.5,29.77,SW,225,8.0,11.0,76,0.00,,,0.00,Wunderground v.1.15,2013-02-11 14:04:00,
2013-02-11 09:05:00,50.8,42.8,29.77,SW,225,8.0,11.0,74,0.00,,,0.00,Wunderground v.1.15,2013-02-11 14:05:00,
2013-02-11 09:07:00,50.6,42.6,29.77,West,275,8.0,11.0,74,0.00,,,0.00,Wunderground v.1.15,2013-02-11 14:07:00,
2013-02-11 09:09:00,50.5,42.5,29.77,SSW,203,8.0,11.0,74,0.00,,,0.00,Wunderground v.1.15,2013-02-11 14:09:00,
2013-02-11 09:10:00,50.4,42.4,29.77,WNW,282,7.0,9.0,74,0.00,,,0.00,Wunderground v.1.15,2013-02-11 14:10:00,
2013-02-11 09:12:00,50.3,42.7,29.77,WSW,241,7.0,9.0,75,0.00,,,0.00,Wunderground v.1.15,2013-02-11 14:12:00,
2013-02-11 09:15:00,49.7,42.1,29.77,SW,214,6.0,11.0,75,0.00,,,0.00,Wunderground v.1.15,2013-02-11 14:15:00,
2013-02-11 09:17:00,49.5,41.9,29.77,WSW,249,6.0,11.0,75,0.00,,,0.00,Wunderground v.1.15,2013-02-11 14:17:00,
2013-02-11 09:18:00,49.4,41.8,29.77,South,188,6.0,11.0,75,0.00,,,0.00,Wunderground v.1.15,2013-02-11 14:18:00,
2013-02-11 09:20:00,49.1,41.2,29.78,SSW,208,6.0,6.0,74,0.00,,,0.00,Wunderground v.1.15,2013-02-11 14:20:00,
2013-02-11 09:23:00,48.6,40.3,29.77,West,263,7.0,9.0,73,0.00,,,0.00,Wunderground v.1.15,2013-02-11 14:23:00,
2013-02-11 09:25:00,48.4,40.5,29.77,West,269,7.0,9.0,74,0.00,,,0.00,Wunderground v.1.15,2013-02-11 14:25:00,
2013-02-11 09:26:00,48.3,40.0,29.78,West,268,7.0,9.0,73,0.00,,,0.00,Wunderground v.1.15,2013-02-11 14:26:00,
2013-02-11 09:27:00,48.2,39.9,29.78,SSW,207,7.0,9.0,73,0.00,,,0.00,Wunderground v.1.15,2013-02-11 14:27:00,
2013-02-11 09:29:00,48.1,39.9,29.78,SW,232,7.0,9.0,73,0.00,,,0.00,Wunderground v.1.15,2013-02-11 14:29:00,
2013-02-11 09:31:00,47.9,39.7,29.78,SSW,194,8.0,8.0,73,0.00,,,0.00,Wunderground v.1.15,2013-02-11 14:31:00,
2013-02-11 09:34:00,47.8,39.6,29.78,SW,227,8.0,8.0,73,0.00,,,0.00,Wunderground v.1.15,2013-02-11 14:34:00,
2013-02-11 09:35:00,47.8,39.6,29.78,SW,234,8.0,8.0,73,0.00,,,0.00,Wunderground v.1.15,2013-02-11 14:35:00,
2013-02-11 09:36:00,47.8,39.2,29.78,SW,223,8.0,8.0,72,0.00,,,0.00,Wunderground v.1.15,2013-02-11 14:36:00,
2013-02-11 09:40:00,47.8,39.2,29.78,WSW,252,8.0,8.0,72,0.00,,,0.00,Wunderground v.1.15,2013-02-11 14:40:00,
2013-02-11 09:41:00,47.8,39.2,29.78,SW,222,7.0,8.0,72,0.00,,,0.00,Wunderground v.1.15,2013-02-11 14:41:00,
2013-02-11 09:43:00,47.8,39.2,29.79,WSW,241,7.0,9.0,72,0.00,,,0.00,Wunderground v.1.15,2013-02-11 14:43:00,
2013-02-11 09:44:00,47.9,39.7,29.79,West,261,7.0,9.0,73,0.00,,,0.00,Wunderground v.1.15,2013-02-11 14:44:00,
2013-02-11 09:47:00,48.1,39.9,29.79,WSW,252,7.0,9.0,73,0.00,,,0.00,Wunderground v.1.15,2013-02-11 14:47:00,
2013-02-11 09:49:00,48.4,40.1,29.79,West,269,7.0,9.0,73,0.00,,,0.00,Wunderground v.1.15,2013-02-11 14:49:00,
2013-02-11 09:52:00,48.7,39.7,29.78,SW,236,7.0,11.0,71,0.00,,,0.00,Wunderground v.1.15,2013-02-11 14:52:00,
2013-02-11 09:55:00,49.0,39.6,29.78,West,265,7.0,11.0,70,0.00,,,0.00,Wunderground v.1.15,2013-02-11 14:55:00,
2013-02-11 09:56:00,49.0,39.6,29.78,WSW,255,8.0,11.0,70,0.00,,,0.00,Wunderground v.1.15,2013-02-11 14:56:00,
2013-02-11 10:00:00,49.2,38.7,29.79,SW,221,9.0,9.0,67,0.00,,,0.00,Wunderground v.1.15,2013-02-11 15:00:00,
2013-02-11 10:01:00,49.2,38.7,29.79,WSW,240,9.0,9.0,67,0.00,,,0.00,Wunderground v.1.15,2013-02-11 15:01:00,
2013-02-11 10:03:00,49.2,38.3,29.79,WSW,244,9.0,9.0,66,0.00,,,0.00,Wunderground v.1.15,2013-02-11 15:03:00,
2013-02-11 10:05:00,49.3,38.8,29.79,SSW,200,9.0,10.0,67,0.00,,,0.00,Wunderground v.1.15,2013-02-11 15:05:00,
2013-02-11 10:08:00,49.5,39.0,29.79,SSW,205,8.0,10.0,67,0.00,,,0.00,Wunderground v.1.15,2013-02-11 15:08:00,
2013-02-11 10:11:00,49.6,38.3,29.79,WSW,242,7.0,10.0,65,0.00,,,0.00,Wunderground v.1.15,2013-02-11 15:11:00,
2013-02-11 10:13:00,49.5,38.6,29.79,WNW,290,7.0,10.0,66,0.00,,,0.00,Wunderground v.1.15,2013-02-11 15:13:00,
2013-02-11 10:15:00,49.5,38.6,29.79,ESE,122,8.0,10.0,66,0.00,,,0.00,Wunderground v.1.15,2013-02-11 15:15:00,
2013-02-11 10:19:00,49.2,37.5,29.79,SW,234,10.0,22.0,64,0.00,,,0.00,Wunderground v.1.15,2013-02-11 15:19:00,
2013-02-11 10:20:00,49.2,37.9,29.79,SSW,198,9.0,9.0,65,0.00,,,0.00,Wunderground v.1.15,2013-02-11 15:20:00,
2013-02-11 10:25:00,49.4,37.3,29.79,WSW,250,9.0,12.0,63,0.00,,,0.00,Wunderground v.1.15,2013-02-11 15:25:00,
2013-02-11 10:26:00,49.4,37.3,29.79,SW,229,9.0,12.0,63,0.00,,,0.00,Wunderground v.1.15,2013-02-11 15:26:00,
2013-02-11 10:27:00,49.4,37.3,29.79,SW,219,9.0,12.0,63,0.00,,,0.00,Wunderground v.1.15,2013-02-11 15:27:00,
2013-02-11 10:30:00,49.3,36.8,29.79,SSW,202,9.0,10.0,62,0.00,,,0.00,Wunderground v.1.15,2013-02-11 15:30:00,
2013-02-11 10:34:00,49.3,37.2,29.80,SSW,200,9.0,10.0,63,0.00,,,0.00,Wunderground v.1.15,2013-02-11 15:34:00,
2013-02-11 10:36:00,49.1,36.6,29.79,West,271,10.0,14.0,62,0.00,,,0.00,Wunderground v.1.15,2013-02-11 15:36:00,
2013-02-11 10:38:00,48.8,36.8,29.80,WSW,246,10.0,14.0,63,0.00,,,0.00,Wunderground v.1.15,2013-02-11 15:38:00,
2013-02-11 10:41:00,48.4,36.8,29.80,WSW,252,10.0,10.0,64,0.00,,,0.00,Wunderground v.1.15,2013-02-11 15:41:00,
2013-02-11 10:42:00,48.3,37.1,29.80,West,261,11.0,22.0,65,0.00,,,0.00,Wunderground v.1.15,2013-02-11 15:42:00,
2013-02-11 10:44:00,48.2,37.0,29.80,WSW,256,11.0,22.0,65,0.00,,,0.00,Wunderground v.1.15,2013-02-11 15:44:00,
2013-02-11 10:47:00,48.2,37.0,29.80,SW,236,11.0,22.0,65,0.00,,,0.00,Wunderground v.1.15,2013-02-11 15:47:00,
2013-02-11 10:49:00,48.2,36.6,29.81,SW,232,11.0,22.0,64,0.00,,,0.00,Wunderground v.1.15,2013-02-11 15:49:00,
2013-02-11 10:50:00,48.2,36.6,29.80,SW,230,11.0,13.0,64,0.00,,,0.00,Wunderground v.1.15,2013-02-11 15:50:00,
2013-02-11 10:55:00,48.2,37.8,29.81,WSW,242,10.0,13.0,67,0.00,,,0.00,Wunderground v.1.15,2013-02-11 15:55:00,
2013-02-11 10:56:00,48.1,37.7,29.81,SSW,213,10.0,13.0,67,0.00,,,0.00,Wunderground v.1.15,2013-02-11 15:56:00,
2013-02-11 10:59:00,47.4,37.0,29.81,NW,306,9.0,14.0,67,0.00,,,0.00,Wunderground v.1.15,2013-02-11 15:59:00,
2013-02-11 11:02:00,46.6,36.2,29.81,West,280,9.0,11.0,67,0.00,,,0.00,Wunderground v.1.15,2013-02-11 16:02:00,
2013-02-11 11:03:00,46.4,36.4,29.81,West,268,9.0,11.0,68,0.00,,,0.00,Wunderground v.1.15,2013-02-11 16:03:00,
2013-02-11 11:04:00,46.3,36.3,29.81,SW,233,9.0,11.0,68,0.00,,,0.00,Wunderground v.1.15,2013-02-11 16:04:00,
2013-02-11 11:08:00,46.3,36.3,29.81,West,277,10.0,16.0,68,0.00,,,0.00,Wunderground v.1.15,2013-02-11 16:08:00,
2013-02-11 11:09:00,46.2,35.8,29.81,WNW,284,10.0,16.0,67,0.00,,,0.00,Wunderground v.1.15,2013-02-11 16:09:00,
2013-02-11 11:12:00,46.1,36.1,29.81,WSW,249,9.0,14.0,68,0.00,,,0.00,Wunderground v.1.15,2013-02-11 16:12:00,
2013-02-11 11:13:00,46.1,36.1,29.81,SW,219,9.0,14.0,68,0.00,,,0.00,Wunderground v.1.15,2013-02-11 16:13:00,
2013-02-11 11:16:00,46.1,36.1,29.82,SSE,157,10.0,14.0,68,0.00,,,0.00,Wunderground v.1.15,2013-02-11 16:16:00,
2013-02-11 11:21:00,46.0,36.0,29.82,WSW,249,10.0,11.0,68,0.00,,,0.00,Wunderground v.1.15,2013-02-11 16:21:00,
2013-02-11 11:22:00,46.0,35.7,29.82,SW,226,10.0,18.0,67,0.00,,,0.00,Wunderground v.1.15,2013-02-11 16:22:00,
2013-02-11 11:23:00,45.9,35.6,29.82,NW,314,10.0,18.0,67,0.00,,,0.00,Wunderground v.1.15,2013-02-11 16:23:00,
2013-02-11 11:24:00,45.9,35.9,29.82,SW,214,10.0,18.0,68,0.00,,,0.00,Wunderground v.1.15,2013-02-11 16:24:00,
2013-02-11 11:27:00,45.8,35.8,29.82,West,275,10.0,18.0,68,0.00,,,0.00,Wunderground v.1.15,2013-02-11 16:27:00,
2013-02-11 11:29:00,45.8,35.5,29.82,WSW,254,10.0,18.0,67,0.00,,,0.00,Wunderground v.1.15,2013-02-11 16:29:00,
2013-02-11 11:30:00,45.8,35.5,29.82,WSW,255,10.0,10.0,67,0.00,,,0.00,Wunderground v.1.15,2013-02-11 16:30:00,
2013-02-11 11:32:00,45.7,35.4,29.82,WSW,242,10.0,14.0,67,0.00,,,0.00,Wunderground v.1.15,2013-02-11 16:32:00,
2013-02-11 11:34:00,45.5,35.2,29.82,WNW,300,11.0,14.0,67,0.00,,,0.00,Wunderground v.1.15,2013-02-11 16:34:00,
2013-02-11 11:35:00,45.6,35.6,29.82,SW,223,11.0,14.0,68,0.00,,,0.00,Wunderground v.1.15,2013-02-11 16:35:00,
2013-02-11 11:38:00,45.7,35.7,29.82,SW,217,11.0,14.0,68,0.00,,,0.00,Wunderground v.1.15,2013-02-11 16:38:00,
2013-02-11 11:43:00,45.7,35.4,29.83,West,265,9.0,18.0,67,0.00,,,0.00,Wunderground v.1.15,2013-02-11 16:43:00,
2013-02-11 11:44:00,45.4,35.1,29.83,SW,232,9.0,18.0,67,0.00,,,0.00,Wunderground v.1.15,2013-02-11 16:44:00,
2013-02-11 11:45:00,45.3,35.0,29.83,SW,221,9.0,18.0,67,0.00,,,0.00,Wunderground v.1.15,2013-02-11 16:45:00,
2013-02-11 11:48:00,44.9,35.3,29.83,SW,232,9.0,18.0,69,0.00,,,0.00,Wunderground v.1.15,2013-02-11 16:48:00,
2013-02-11 11:50:00,44.8,35.2,29.83,WSW,237,9.0,10.0,69,0.00,,,0.00,Wunderground v.1.15,2013-02-11 16:50:00,
2013-02-11 11:52:00,44.7,35.1,29.83,WSW,249,9.0,11.0,69,0.00,,,0.00,Wunderground v.1.15,2013-02-11 16:52:00,
2013-02-11 11:55:00,44.5,35.0,29.83,WSW,250,10.0,11.0,69,0.00,,,0.00,Wunderground v.1.15,2013-02-11 16:55:00,
2013-02-11 11:56:00,44.5,35.3,29.83,SW,215,10.0,11.0,70,0.00,,,0.00,Wunderground v.1.15,2013-02-11 16:56:00,
2013-02-11 11:57:00,44.5,35.3,29.83,SW,221,10.0,11.0,70,0.00,,,0.00,Wunderground v.1.15,2013-02-11 16:57:00,
2013-02-11 12:02:00,44.7,35.1,29.83,West,270,10.0,13.0,69,0.00,,,0.00,Wunderground v.1.15,2013-02-11 17:02:00,
2013-02-11 12:04:00,44.6,35.1,29.83,SSE,167,9.0,13.0,69,0.00,,,0.00,Wunderground v.1.15,2013-02-11 17:04:00,
2013-02-11 12:06:00,44.4,34.9,29.83,SSW,204,10.0,13.0,69,0.00,,,0.00,Wunderground v.1.15,2013-02-11 17:06:00,
2013-02-11 12:08:00,44.3,35.1,29.83,WSW,257,10.0,13.0,70,0.00,,,0.00,Wunderground v.1.15,2013-02-11 17:08:00,
2013-02-11 12:10:00,44.3,34.8,29.83,WSW,240,10.0,15.0,69,0.00,,,0.00,Wunderground v.1.15,2013-02-11 17:10:00,
2013-02-11 12:11:00,44.3,34.8,29.83,SSE,164,10.0,15.0,69,0.00,,,0.00,Wunderground v.1.15,2013-02-11 17:11:00,
2013-02-11 12:16:00,44.3,34.4,29.83,SW,218,11.0,15.0,68,0.00,,,0.00,Wunderground v.1.15,2013-02-11 17:16:00,
2013-02-11 12:19:00,44.8,35.2,29.83,West,274,11.0,15.0,69,0.00,,,0.00,Wunderground v.1.15,2013-02-11 17:19:00,
2013-02-11 12:21:00,45.2,35.3,29.83,South,171,11.0,11.0,68,0.00,,,0.00,Wunderground v.1.15,2013-02-11 17:21:00,
2013-02-11 12:22:00,45.2,34.9,29.83,WSW,246,11.0,11.0,67,0.00,,,0.00,Wunderground v.1.15,2013-02-11 17:22:00,
2013-02-11 12:24:00,45.3,35.0,29.84,West,263,10.0,19.0,67,0.00,,,0.00,Wunderground v.1.15,2013-02-11 17:24:00,
2013-02-11 12:27:00,45.0,34.7,29.84,WSW,252,10.0,19.0,67,0.00,,,0.00,Wunderground v.1.15,2013-02-11 17:27:00,
2013-02-11 12:29:00,45.1,34.8,29.84,SSW,199,9.0,19.0,67,0.00,,,0.00,Wunderground v.1.15,2013-02-11 17:29:00,
2013-02-11 12:30:00,45.0,34.3,29.83,SW,224,9.0,9.0,66,0.00,,,0.00,Wunderground v.1.15,2013-02-11 17:30:00,
2013-02-11 12:31:00,45.0,34.3,29.84,South,182,9.0,9.0,66,0.00,,,0.00,Wunderground v.1.15,2013-02-11 17:31:00,
2013-02-11 12:33:00,44.9,34.2,29.84,West,262,10.0,13.0,66,0.00,,,0.00,Wunderground v.1.15,2013-02-11 17:33:00,
2013-02-11 12:37:00,44.9,35.0,29.83,West,273,9.0,15.0,68,0.00,,,0.00,Wunderground v.1.15,2013-02-11 17:37:00,
2013-02-11 12:38:00,44.9,35.0,29.84,WSW,240,9.0,15.0,68,0.00,,,0.00,Wunderground v.1.15,2013-02-11 17:38:00,
2013-02-11 12:39:00,45.0,35.1,29.84,WNW,303,9.0,15.0,68,0.00,,,0.00,Wunderground v.1.15,2013-02-11 17:39:00,
2013-02-11 12:40:00,44.9,35.3,29.83,SW,223,9.0,15.0,69,0.00,,,0.00,Wunderground v.1.15,2013-02-11 17:40:00,
2013-02-11 12:44:00,44.7,34.8,29.83,SW,219,9.0,16.0,68,0.00,,,0.00,Wunderground v.1.15,2013-02-11 17:44:00,
2013-02-11 12:47:00,44.9,35.3,29.83,WSW,255,9.0,16.0,69,0.00,,,0.00,Wunderground v.1.15,2013-02-11 17:47:00,
2013-02-11 12:51:00,44.7,34.4,29.83,SW,232,10.0,16.0,67,0.00,,,0.00,Wunderground v.1.15,2013-02-11 17:51:00,
2013-02-11 12:53:00,44.4,33.4,29.83,WSW,244,10.0,16.0,65,0.00,,,0.00,Wunderground v.1.15,2013-02-11 17:53:00,
2013-02-11 12:54:00,44.2,33.6,29.83,SW,236,11.0,16.0,66,0.00,,,0.00,Wunderground v.1.15,2013-02-11 17:54:00,
2013-02-11 12:58:00,44.0,33.4,29.83,WSW,242,12.0,16.0,66,0.00,,,0.00,Wunderground v.1.15,2013-02-11 17:58:00,
2013-02-11 13:01:00,43.9,33.6,29.83,WSW,242,12.0,12.0,67,0.00,,,0.00,Wunderground v.1.15,2013-02-11 18:01:00,
2013-02-11 13:03:00,44.2,33.6,29.83,SSW,205,12.0,12.0,66,0.00,,,0.00,Wunderground v.1.15,2013-02-11 18:03:00,
2013-02-11 13:05:00,44.3,33.7,29.83,SW,224,12.0,14.0,66,0.00,,,0.00,Wunderground v.1.15,2013-02-11 18:05:00,
2013-02-11 13:09:00,44.9,33.5,29.83,West,260,11.0,14.0,64,0.00,,,0.00,Wunderground v.1.15,2013-02-11 18:09:00,
2013-02-11 13:10:00,45.0,33.5,29.83,South,172,11.0,13.0,64,0.00,,,0.00,Wunderground v.1.15,2013-02-11 18:10:00,
2013-02-11 13:11:00,45.2,33.7,29.83,SW,234,11.0,13.0,64,0.00,,,0.00,Wunderground v.1.15,2013-02-11 18:11:00,
2013-02-11 13:14:00,45.3,33.8,29.83,West,273,10.0,13.0,64,0.00,,,0.00,Wunderground v.1.15,2013-02-11 18:14:00,
2013-02-11 13:16:00,45.2,33.3,29.83,SSE,164,10.0,13.0,63,0.00,,,0.00,Wunderground v.1.15,2013-02-11 18:16:00,
2013-02-11 13:18:00,45.1,33.6,29.83,SW,214,9.0,13.0,64,0.00,,,0.00,Wunderground v.1.15,2013-02-11 18:18:00,
2013-02-11 13:19:00,45.0,33.5,29.83,West,263,9.0,18.0,64,0.00,,,0.00,Wunderground v.1.15,2013-02-11 18:19:00,
2013-02-11 13:23:00,43.9,32.5,29.83,WSW,251,10.0,23.0,64,0.00,,,0.00,Wunderground v.1.15,2013-02-11 18:23:00,
2013-02-11 13:25:00,43.8,33.2,29.83,SW,233,10.0,23.0,66,0.00,,,0.00,Wunderground v.1.15,2013-02-11 18:25:00,
2013-02-11 13:26:00,43.8,33.2,29.83,West,270,10.0,23.0,66,0.00,,,0.00,Wunderground v.1.15,2013-02-11 18:26:00,
2013-02-11 13:29:00,43.5,32.1,29.83,West,263,12.0,23.0,64,0.00,,,0.00,Wunderground v.1.15,2013-02-11 18:29:00,
2013-02-11 13:30:00,43.3,31.5,29.84,WSW,254,12.0,12.0,63,0.00,,,0.00,Wunderground v.1.15,2013-02-11 18:30:00,
2013-02-11 13:31:00,43.2,31.4,29.84,NW,309,12.0,12.0,63,0.00,,,0.00,Wunderground v.1.15,2013-02-11 18:31:00,
2013-02-11 13:32:00,43.2,31.8,29.84,West,260,11.0,18.0,64,0.00,,,0.00,Wunderground v.1.15,2013-02-11 18:32:00,
2013-02-11 13:37:00,43.3,31.9,29.84,WSW,252,12.0,18.0,64,0.00,,,0.00,Wunderground v.1.15,2013-02-11 18:37:00,
2013-02-11 13:39:00,43.3,31.9,29.84,WSW,239,12.0,18.0,64,0.00,,,0.00,Wunderground v.1.15,2013-02-11 18:39:00,
2013-02-11 13:41:00,43.2,31.8,29.84,WSW,252,11.0,16.0,64,0.00,,,0.00,Wunderground v.1.15,2013-02-11 18:41:00,
2013-02-11 13:43:00,43.0,31.6,29.85,West,265,11.0,16.0,64,0.00,,,0.00,Wunderground v.1.15,2013-02-11 18:43:00,
2013-02-11 13:47:00,42.8,31.5,29.84,SW,233,11.0,16.0,64,0.00,,,0.00,Wunderground v.1.15,2013-02-11 18:47:00,
2013-02-11 13:48:00,42.6,31.3,29.84,West,266,11.0,16.0,64,0.00,,,0.00,Wunderground v.1.15,2013-02-11 18:48:00,
2013-02-11 13:49:00,42.5,31.2,29.84,WSW,252,11.0,16.0,64,0.00,,,0.00,Wunderground v.1.15,2013-02-11 18:49:00,
2013-02-11 13:52:00,42.4,31.8,29.84,WSW,243,11.0,12.0,66,0.00,,,0.00,Wunderground v.1.15,2013-02-11 18:52:00,
2013-02-11 13:54:00,42.5,31.9,29.84,WSW,244,11.0,15.0,66,0.00,,,0.00,Wunderground v.1.15,2013-02-11 18:54:00,
2013-02-11 13:58:00,42.6,31.7,29.85,West,274,11.0,15.0,65,0.00,,,0.00,Wunderground v.1.15,2013-02-11 18:58:00,
2013-02-11 13:59:00,42.6,31.7,29.85,WSW,242,11.0,18.0,65,0.00,,,0.00,Wunderground v.1.15,2013-02-11 18:59:00,
2013-02-11 14:04:00,42.8,31.5,29.85,West,260,12.0,16.0,64,0.00,,,0.00,Wunderground v.1.15,2013-02-11 19:04:00,
2013-02-11 14:05:00,42.9,32.3,29.85,SW,236,11.0,16.0,66,0.00,,,0.00,Wunderground v.1.15,2013-02-11 19:05:00,
2013-02-11 14:08:00,42.5,31.2,29.85,South,183,10.0,16.0,64,0.00,,,0.00,Wunderground v.1.15,2013-02-11 19:08:00,
2013-02-11 14:09:00,42.2,30.9,29.85,SW,228,10.0,16.0,64,0.00,,,0.00,Wunderground v.1.15,2013-02-11 19:09:00,
2013-02-11 14:12:00,41.7,30.4,29.85,WNW,298,9.0,16.0,64,0.00,,,0.00,Wunderground v.1.15,2013-02-11 19:12:00,
2013-02-11 14:14:00,41.6,30.7,29.85,SSW,192,10.0,15.0,65,0.00,,,0.00,Wunderground v.1.15,2013-02-11 19:14:00,
2013-02-11 14:16:00,41.5,30.6,29.85,NW,304,10.0,15.0,65,0.00,,,0.00,Wunderground v.1.15,2013-02-11 19:16:00,
2013-02-11 14:20:00,41.3,30.8,29.86,West,266,11.0,18.0,66,0.00,,,0.00,Wunderground v.1.15,2013-02-11 19:20:00,
2013-02-11 14:22:00,41.5,31.0,29.86,West,265,11.0,18.0,66,0.00,,,0.00,Wunderground v.1.15,2013-02-11 19:22:00,
2013-02-11 14:26:00,42.2,31.6,29.86,WNW,298,10.0,15.0,66,0.00,,,0.00,Wunderground v.1.15,2013-02-11 19:26:00,
2013-02-11 14:29:00,42.7,31.7,29.86,South,180,10.0,15.0,65,0.00,,,0.00,Wunderground v.1.15,2013-02-11 19:29:00,
2013-02-11 14:30:00,42.8,31.5,29.86,WSW,246,10.0,15.0,64,0.00,,,0.00,Wunderground v.1.15,2013-02-11 19:30:00,
2013-02-11 14:34:00,42.5,31.2,29.86,SSW,213,10.0,11.0,64,0.00,,,0.00,Wunderground v.1.15,2013-02-11 19:34:00,
2013-02-11 14:35:00,42.5,31.2,29.86,WSW,237,10.0,11.0,64,0.00,,,0.00,Wunderground v.1.15,2013-02-11 19:35:00,
2013-02-11 14:36:00,42.5,31.6,29.86,SW,227,10.0,11.0,65,0.00,,,0.00,Wunderground v.1.15,2013-02-11 19:36:00,
2013-02-11 14:37:00,42.6,31.7,29.86,SW,219,10.0,11.0,65,0.00,,,0.00,Wunderground v.1.15,2013-02-11 19:37:00,
2013-02-11 14:39:00,42.8,31.8,29.86,West,269,10.0,11.0,65,0.00,,,0.00,Wunderground v.1.15,2013-02-11 19:39:00,
2013-02-11 14:40:00,42.8,31.8,29.86,SW,229,9.0,11.0,65,0.00,,,0.00,Wunderground v.1.15,2013-02-11 19:40:00,
2013-02-11 14:42:00,43.1,31.7,29.85,WNW,302,9.0,12.0,64,0.00,,,0.00,Wunderground v.1.15,2013-02-11 19:42:00,
2013-02-11 14:44:00,43.2,31.8,29.86,WSW,245,10.0,11.0,64,0.00,,,0.00,Wunderground v.1.15,2013-02-11 19:44:00,
2013-02-11 14:45:00,43.3,31.5,29.86,WSW,250,10.0,11.0,63,0.00,,,0.00,Wunderground v.1.15,2013-02-11 19:45:00,
2013-02-11 14:49:00,43.3,31.9,29.86,WSW,240,11.0,13.0,64,0.00,,,0.00,Wunderground v.1.15,2013-02-11 19:49:00,
2013-02-11 14:50:00,43.1,31.4,29.86,South,188,11.0,13.0,63,0.00,,,0.00,Wunderground v.1.15,2013-02-11 19:50:00,
2013-02-11 14:54:00,42.7,31.0,29.87,NNW,327,10.0,11.0,63,0.00,,,0.00,Wunderground v.1.15,2013-02-11 19:54:00,
2013-02-11 14:59:00,42.6,30.9,29.87,West,259,10.0,15.0,63,0.00,,,0.00,Wunderground v.1.15,2013-02-11 19:59:00,
2013-02-11 15:01:00,42.7,31.4,29.87,West,269,11.0,15.0,64,0.00,,,0.00,Wunderground v.1.15,2013-02-11 20:01:00,
2013-02-11 15:02:00,42.9,31.2,29.87,SSW,203,11.0,15.0,63,0.00,,,0.00,Wunderground v.1.15,2013-02-11 20:02:00,
2013-02-11 15:05:00,43.1,30.6,29.87,WSW,239,11.0,15.0,61,0.00,,,0.00,Wunderground v.1.15,2013-02-11 20:05:00,
2013-02-11 15:06:00,42.9,30.4,29.88,WSW,238,11.0,16.0,61,0.00,,,0.00,Wunderground v.1.15,2013-02-11 20:06:00,
2013-02-11 15:10:00,42.9,31.2,29.87,SSW,210,11.0,16.0,63,0.00,,,0.00,Wunderground v.1.15,2013-02-11 20:10:00,
2013-02-11 15:11:00,43.0,30.9,29.87,WSW,250,11.0,16.0,62,0.00,,,0.00,Wunderground v.1.15,2013-02-11 20:11:00,
2013-02-11 15:12:00,43.1,30.6,29.88,West,261,11.0,16.0,61,0.00,,,0.00,Wunderground v.1.15,2013-02-11 20:12:00,
2013-02-11 15:16:00,42.9,30.8,29.88,WSW,249,11.0,18.0,62,0.00,,,0.00,Wunderground v.1.15,2013-02-11 20:16:00,
2013-02-11 15:18:00,42.7,30.6,29.88,SW,234,10.0,18.0,62,0.00,,,0.00,Wunderground v.1.15,2013-02-11 20:18:00,
2013-02-11 15:19:00,42.5,30.8,29.88,WSW,243,10.0,18.0,63,0.00,,,0.00,Wunderground v.1.15,2013-02-11 20:19:00,
2013-02-11 15:20:00,42.5,30.8,29.88,West,271,10.0,14.0,63,0.00,,,0.00,Wunderground v.1.15,2013-02-11 20:20:00,
2013-02-11 15:22:00,42.3,30.6,29.88,West,260,10.0,18.0,63,0.00,,,0.00,Wunderground v.1.15,2013-02-11 20:22:00,
2013-02-11 15:24:00,42.1,30.4,29.88,WNW,285,10.0,18.0,63,0.00,,,0.00,Wunderground v.1.15,2013-02-11 20:24:00,
2013-02-11 15:25:00,42.0,30.3,29.88,South,173,10.0,18.0,63,0.00,,,0.00,Wunderground v.1.15,2013-02-11 20:25:00,
2013-02-11 15:27:00,41.9,30.2,29.88,South,190,10.0,18.0,63,0.00,,,0.00,Wunderground v.1.15,2013-02-11 20:27:00,
2013-02-11 15:29:00,41.9,30.6,29.88,SW,216,10.0,18.0,64,0.00,,,0.00,Wunderground v.1.15,2013-02-11 20:29:00,
2013-02-11 15:33:00,41.8,30.5,29.88,WSW,252,9.0,15.0,64,0.00,,,0.00,Wunderground v.1.15,2013-02-11 20:33:00,
2013-02-11 15:34:00,41.9,30.6,29.88,SSW,209,9.0,15.0,64,0.00,,,0.00,Wunderground v.1.15,2013-02-11 20:34:00,
2013-02-11 15:35:00,41.9,30.2,29.88,WNW,297,9.0,15.0,63,0.00,,,0.00,Wunderground v.1.15,2013-02-11 20:35:00,
2013-02-11 15:39:00,41.8,30.1,29.88,WSW,257,10.0,15.0,63,0.00,,,0.00,Wunderground v.1.15,2013-02-11 20:39:00,
2013-02-11 15:40:00,41.8,30.5,29.88,West,268,9.0,12.0,64,0.00,,,0.00,Wunderground v.1.15,2013-02-11 20:40:00,
2013-02-11 15:41:00,41.7,30.4,29.88,WSW,244,9.0,12.0,64,0.00,,,0.00,Wunderground v.1.15,2013-02-11 20:41:00,
2013-02-11 15:44:00,41.7,30.4,29.88,South,179,9.0,12.0,64,0.00,,,0.00,Wunderground v.1.15,2013-02-11 20:44:00,
2013-02-11 15:46:00,41.7,30.8,29.88,WSW,237,9.0,12.0,65,0.00,,,0.00,Wunderground v.1.15,2013-02-11 20:46:00,
2013-02-11 15:50:00,41.7,30.4,29.89,West,279,8.0,13.0,64,0.00,,,0.00,Wunderground v.1.15,2013-02-11 20:50:00,
2013-02-11 15:52:00,41.6,30.7,29.88,South,184,8.0,13.0,65,0.00,,,0.00,Wunderground v.1.15,2013-02-11 20:52:00,
2013-02-11 15:53:00,41.6,30.7,29.88,SW,219,8.0,13.0,65,0.00,,,0.00,Wunderground v.1.15,2013-02-11 20:53:00,
2013-02-11 15:56:00,41.7,31.2,29.88,WSW,244,8.0,13.0,66,0.00,,,0.00,Wunderground v.1.15,2013-02-11 20:56:00,
2013-02-11 15:59:00,41.9,31.0,29.88,West,277,8.0,13.0,65,0.00,,,0.00,Wunderground v.1.15,2013-02-11 20:59:00,
2013-02-11 16:00:00,42.0,31.5,29.88,SW,229,8.0,8.0,66,0.00,,,0.00,Wunderground v.1.15,2013-02-11 21:00:00,
2013-02-11 16:01:00,42.1,31.6,29.88,WSW,256,7.0,8.0,66,0.00,,,0.00,Wunderground v.1.15,2013-02-11 21:01:00,
2013-02-11 16:03:00,42.2,31.3,29.88,SW,223,7.0,9.0,65,0.00,,,0.00,Wunderground v.1.15,2013-02-11 21:03:00,
2013-02-11 16:07:00,42.1,31.2,29.89,West,280,8.0,14.0,65,0.00,,,0.00,Wunderground v.1.15,2013-02-11 21:07:00,
2013-02-11 16:08:00,42.0,30.7,29.89,SW,219,8.0,14.0,64,0.00,,,0.00,Wunderground v.1.15,2013-02-11 21:08:00,
2013-02-11 16:09:00,42.0,31.1,29.89,West,273,8.0,14.0,65,0.00,,,0.00,Wunderground v.1.15,2013-02-11 21:09:00,
2013-02-11 16:12:00,42.0,31.5,29.89,WSW,249,9.0,11.0,66,0.00,,,0.00,Wunderground v.1.15,2013-02-11 21:12:00,
2013-02-11 16:13:00,42.0,31.5,29.89,SW,226,9.0,11.0,66,0.00,,,0.00,Wunderground v.1.15,2013-02-11 21:13:00,
2013-02-11 16:14:00,42.0,31.1,29.89,West,277,9.0,11.0,65,0.00,,,0.00,Wunderground v.1.15,2013-02-11 21:14:00,
2013-02-11 16:15:00,42.1,31.2,29.88,SSW,213,9.0,11.0,65,0.00,,,0.00,Wunderground v.1.15,2013-02-11 21:15:00,
2013-02-11 16:19:00,42.1,31.2,29.89,West,263,9.0,15.0,65,0.00,,,0.00,Wunderground v.1.15,2013-02-11 21:19:00,
2013-02-11 16:20:00,42.2,31.6,29.89,SW,228,8.0,8.0,66,0.00,,,0.00,Wunderground v.1.15,2013-02-11 21:20:00,
2013-02-11 16:21:00,42.2,31.3,29.89,West,274,8.0,8.0,65,0.00,,,0.00,Wunderground v.1.15,2013-02-11 21:21:00,
2013-02-11 16:26:00,42.3,31.0,29.89,WSW,256,9.0,13.0,64,0.00,,,0.00,Wunderground v.1.15,2013-02-11 21:26:00,
2013-02-11 16:27:00,42.3,31.0,29.89,WSW,238,9.0,13.0,64,0.00,,,0.00,Wunderground v.1.15,2013-02-11 21:27:00,
2013-02-11 16:32:00,42.1,31.2,29.89,WNW,283,9.0,11.0,65,0.00,,,0.00,Wunderground v.1.15,2013-02-11 21:32:00,
2013-02-11 16:34:00,42.0,31.1,29.89,SW,232,9.0,13.0,65,0.00,,,0.00,Wunderground v.1.15,2013-02-11 21:34:00,
2013-02-11 16:37:00,41.7,30.8,29.89,West,269,9.0,13.0,65,0.00,,,0.00,Wunderground v.1.15,2013-02-11 21:37:00,
2013-02-11 16:38:00,41.7,30.8,29.89,WSW,245,9.0,15.0,65,0.00,,,0.00,Wunderground v.1.15,2013-02-11 21:38:00,
2013-02-11 16:42:00,41.8,30.9,29.89,WSW,254,9.0,11.0,65,0.00,,,0.00,Wunderground v.1.15,2013-02-11 21:42:00,
2013-02-11 16:44:00,41.9,31.0,29.89,WNW,286,9.0,11.0,65,0.00,,,0.00,Wunderground v.1.15,2013-02-11 21:44:00,
2013-02-11 16:45:00,41.9,31.0,29.89,SW,227,9.0,11.0,65,0.00,,,0.00,Wunderground v.1.15,2013-02-11 21:45:00,
2013-02-11 16:49:00,41.7,31.2,29.89,West,261,7.0,11.0,66,0.00,,,0.00,Wunderground v.1.15,2013-02-11 21:49:00,
2013-02-11 16:53:00,41.2,31.1,29.90,West,279,7.0,15.0,67,0.00,,,0.00,Wunderground v.1.15,2013-02-11 21:53:00,
2013-02-11 16:54:00,41.1,31.0,29.90,WSW,243,7.0,15.0,67,0.00,,,0.00,Wunderground v.1.15,2013-02-11 21:54:00,
2013-02-11 16:58:00,40.7,30.6,29.90,WSW,254,8.0,15.0,67,0.00,,,0.00,Wunderground v.1.15,2013-02-11 21:58:00,
2013-02-11 17:01:00,40.5,30.8,29.90,West,271,8.0,11.0,68,0.00,,,0.00,Wunderground v.1.15,2013-02-11 22:01:00,
2013-02-11 17:03:00,40.4,31.0,29.90,West,277,8.0,11.0,69,0.00,,,0.00,Wunderground v.1.15,2013-02-11 22:03:00,
2013-02-11 17:05:00,40.3,30.9,29.90,WNW,287,7.0,13.0,69,0.00,,,0.00,Wunderground v.1.15,2013-02-11 22:05:00,
2013-02-11 17:06:00,40.2,30.8,29.90,NW,307,7.0,13.0,69,0.00,,,0.00,Wunderground v.1.15,2013-02-11 22:06:00,
2013-02-11 17:08:00,40.2,30.8,29.91,West,261,7.0,13.0,69,0.00,,,0.00,Wunderground v.1.15,2013-02-11 22:08:00,
2013-02-11 17:12:00,40.0,31.0,29.90,SSE,168,7.0,7.0,70,0.00,,,0.00,Wunderground v.1.15,2013-02-11 22:12:00,
2013-02-11 17:13:00,40.0,31.0,29.90,West,260,7.0,13.0,70,0.00,,,0.00,Wunderground v.1.15,2013-02-11 22:13:00,
2013-02-11 17:14:00,39.9,30.9,29.90,WSW,257,7.0,13.0,70,0.00,,,0.00,Wunderground v.1.15,2013-02-11 22:14:00,
2013-02-11 17:19:00,39.6,31.0,29.90,West,270,7.0,13.0,71,0.00,,,0.00,Wunderground v.1.15,2013-02-11 22:19:00,
2013-02-11 17:21:00,39.5,30.9,29.91,West,269,7.0,13.0,71,0.00,,,0.00,Wunderground v.1.15,2013-02-11 22:21:00,
2013-02-11 17:22:00,39.5,30.9,29.91,West,265,7.0,13.0,71,0.00,,,0.00,Wunderground v.1.15,2013-02-11 22:22:00,
2013-02-11 17:24:00,39.4,30.8,29.91,SW,234,7.0,13.0,71,0.00,,,0.00,Wunderground v.1.15,2013-02-11 22:24:00,
2013-02-11 17:26:00,39.4,30.8,29.91,West,267,7.0,13.0,71,0.00,,,0.00,Wunderground v.1.15,2013-02-11 22:26:00,
2013-02-11 17:29:00,39.3,30.7,29.91,NW,309,7.0,13.0,71,0.00,,,0.00,Wunderground v.1.15,2013-02-11 22:29:00,
2013-02-11 17:31:00,39.1,30.8,29.91,West,261,7.0,9.0,72,0.00,,,0.00,Wunderground v.1.15,2013-02-11 22:31:00,
2013-02-11 17:32:00,39.1,30.8,29.91,West,275,7.0,9.0,72,0.00,,,0.00,Wunderground v.1.15,2013-02-11 22:32:00,
2013-02-11 17:35:00,38.9,30.6,29.91,SW,217,8.0,11.0,72,0.00,,,0.00,Wunderground v.1.15,2013-02-11 22:35:00,
2013-02-11 17:37:00,38.8,30.5,29.91,SW,222,7.0,11.0,72,0.00,,,0.00,Wunderground v.1.15,2013-02-11 22:37:00,
2013-02-11 17:38:00,38.7,30.4,29.91,SW,234,8.0,11.0,72,0.00,,,0.00,Wunderground v.1.15,2013-02-11 22:38:00,
2013-02-11 17:40:00,38.5,30.6,29.91,WSW,258,8.0,8.0,73,0.00,,,0.00,Wunderground v.1.15,2013-02-11 22:40:00,
2013-02-11 17:43:00,38.3,30.4,29.91,South,191,7.0,8.0,73,0.00,,,0.00,Wunderground v.1.15,2013-02-11 22:43:00,
2013-02-11 17:44:00,38.2,30.6,29.91,West,273,6.0,12.0,74,0.00,,,0.00,Wunderground v.1.15,2013-02-11 22:44:00,
2013-02-11 17:48:00,38.0,30.4,29.92,West,260,6.0,14.0,74,0.00,,,0.00,Wunderground v.1.15,2013-02-11 22:48:00,
2013-02-11 17:50:00,38.0,30.4,29.92,SW,214,6.0,6.0,74,0.00,,,0.00,Wunderground v.1.15,2013-02-11 22:50:00,
2013-02-11 17:51:00,37.9,30.4,29.92,West,277,6.0,11.0,74,0.00,,,0.00,Wunderground v.1.15,2013-02-11 22:51:00,
2013-02-11 17:56:00,37.7,30.2,29.92,SSE,168,7.0,11.0,74,0.00,,,0.00,Wunderground v.1.15,2013-02-11 22:56:00,
2013-02-11 17:57:00,37.7,30.2,29.92,WNW,289,6.0,11.0,74,0.00,,,0.00,Wunderground v.1.15,2013-02-11 22:57:00,
2013-02-11 18:02:00,37.4,30.2,29.92,SSW,209,7.0,12.0,75,0.00,,,0.00,Wunderground v.1.15,2013-02-11 23:02:00,
2013-02-11 18:03:00,37.3,30.1,29.92,SSW,198,7.0,12.0,75,0.00,,,0.00,Wunderground v.1.15,2013-02-11 23:03:00,
2013-02-11 18:04:00,37.3,30.1,29.92,WNW,284,7.0,12.0,75,0.00,,,0.00,Wunderground v.1.15,2013-02-11 23:04:00,
2013-02-11 18:08:00,37.2,30.0,29.92,West,277,7.0,12.0,75,0.00,,,0.00,Wunderground v.1.15,2013-02-11 23:08:00,
2013-02-11 18:09:00,37.2,30.0,29.92,SW,234,7.0,12.0,75,0.00,,,0.00,Wunderground v.1.15,2013-02-11 23:09:00,
2013-02-11 18:10:00,37.3,29.8,29.92,West,268,7.0,9.0,74,0.00,,,0.00,Wunderground v.1.15,2013-02-11 23:10:00,
2013-02-11 18:12:00,37.2,30.0,29.92,WSW,240,7.0,9.0,75,0.00,,,0.00,Wunderground v.1.15,2013-02-11 23:12:00,
2013-02-11 18:14:00,37.2,30.0,29.93,West,271,8.0,9.0,75,0.00,,,0.00,Wunderground v.1.15,2013-02-11 23:14:00,
2013-02-11 18:17:00,37.2,30.0,29.92,SW,230,8.0,9.0,75,0.00,,,0.00,Wunderground v.1.15,2013-02-11 23:17:00,
2013-02-11 18:18:00,37.2,30.0,29.92,WSW,238,8.0,9.0,75,0.00,,,0.00,Wunderground v.1.15,2013-02-11 23:18:00,
2013-02-11 18:20:00,37.2,30.0,29.92,South,171,7.0,9.0,75,0.00,,,0.00,Wunderground v.1.15,2013-02-11 23:20:00,
2013-02-11 18:22:00,37.1,29.9,29.92,West,275,7.0,11.0,75,0.00,,,0.00,Wunderground v.1.15,2013-02-11 23:22:00,
2013-02-11 18:23:00,37.1,29.9,29.92,NW,318,7.0,11.0,75,0.00,,,0.00,Wunderground v.1.15,2013-02-11 23:23:00,
2013-02-11 18:25:00,37.1,29.9,29.92,WSW,240,6.0,11.0,75,0.00,,,0.00,Wunderground v.1.15,2013-02-11 23:25:00,
2013-02-11 18:27:00,37.0,29.8,29.92,NNW,340,6.0,11.0,75,0.00,,,0.00,Wunderground v.1.15,2013-02-11 23:27:00,
2013-02-11 18:30:00,37.0,29.8,29.93,SW,231,7.0,8.0,75,0.00,,,0.00,Wunderground v.1.15,2013-02-11 23:30:00,
2013-02-11 18:31:00,37.0,29.8,29.93,West,279,7.0,9.0,75,0.00,,,0.00,Wunderground v.1.15,2013-02-11 23:31:00,
2013-02-11 18:34:00,37.0,29.8,29.93,SW,234,8.0,11.0,75,0.00,,,0.00,Wunderground v.1.15,2013-02-11 23:34:00,
2013-02-11 18:37:00,37.0,29.8,29.93,SW,220,8.0,13.0,75,0.00,,,0.00,Wunderground v.1.15,2013-02-11 23:37:00,
2013-02-11 18:38:00,37.0,29.8,29.93,West,268,8.0,13.0,75,0.00,,,0.00,Wunderground v.1.15,2013-02-11 23:38:00,
2013-02-11 18:39:00,37.0,29.8,29.93,West,263,7.0,13.0,75,0.00,,,0.00,Wunderground v.1.15,2013-02-11 23:39:00,
2013-02-11 18:40:00,36.9,29.7,29.93,WSW,256,8.0,8.0,75,0.00,,,0.00,Wunderground v.1.15,2013-02-11 23:40:00,
2013-02-11 18:42:00,36.9,29.7,29.93,SW,217,7.0,8.0,75,0.00,,,0.00,Wunderground v.1.15,2013-02-11 23:42:00,
2013-02-11 18:44:00,36.8,29.6,29.93,West,259,7.0,8.0,75,0.00,,,0.00,Wunderground v.1.15,2013-02-11 23:44:00,
2013-02-11 18:46:00,36.7,29.5,29.93,SW,236,7.0,8.0,75,0.00,,,0.00,Wunderground v.1.15,2013-02-11 23:46:00,
2013-02-11 18:51:00,36.5,29.3,29.93,West,269,7.0,9.0,75,0.00,,,0.00,Wunderground v.1.15,2013-02-11 23:51:00,
2013-02-11 18:52:00,36.5,29.3,29.93,West,262,7.0,9.0,75,0.00,,,0.00,Wunderground v.1.15,2013-02-11 23:52:00,
2013-02-11 18:53:00,36.4,29.6,29.93,WNW,290,6.0,9.0,76,0.00,,,0.00,Wunderground v.1.15,2013-02-11 23:53:00,
2013-02-11 18:57:00,36.2,29.4,29.94,WSW,254,6.0,13.0,76,0.00,,,0.00,Wunderground v.1.15,2013-02-11 23:57:00,
2013-02-11 18:59:00,36.1,29.3,29.94,SW,221,6.0,13.0,76,0.00,,,0.00,Wunderground v.1.15,2013-02-11 23:59:00,
2013-02-11 19:01:00,36.0,29.2,29.94,WNW,282,6.0,6.0,76,0.00,,,0.00,Wunderground v.1.15,2013-02-12 00:01:00,
2013-02-11 19:05:00,35.9,29.1,29.94,WSW,257,6.0,11.0,76,0.00,,,0.00,Wunderground v.1.15,2013-02-12 00:05:00,
2013-02-11 19:06:00,35.8,29.0,29.94,SW,235,6.0,11.0,76,0.00,,,0.00,Wunderground v.1.15,2013-02-12 00:06:00,
2013-02-11 19:07:00,35.8,29.0,29.94,West,259,6.0,11.0,76,0.00,,,0.00,Wunderground v.1.15,2013-02-12 00:07:00,
2013-02-11 19:08:00,35.8,29.0,29.94,West,276,6.0,11.0,76,0.00,,,0.00,Wunderground v.1.15,2013-02-12 00:08:00,
2013-02-11 19:11:00,35.7,29.2,29.95,WNW,290,6.0,9.0,77,0.00,,,0.00,Wunderground v.1.15,2013-02-12 00:11:00,
2013-02-11 19:13:00,35.7,29.2,29.95,WNW,283,6.0,9.0,77,0.00,,,0.00,Wunderground v.1.15,2013-02-12 00:13:00,
2013-02-11 19:17:00,35.8,29.3,29.94,WSW,253,6.0,9.0,77,0.00,,,0.00,Wunderground v.1.15,2013-02-12 00:17:00,
2013-02-11 19:19:00,35.8,29.3,29.95,West,266,7.0,9.0,77,0.00,,,0.00,Wunderground v.1.15,2013-02-12 00:19:00,
2013-02-11 19:21:00,35.8,29.0,29.95,SW,236,7.0,7.0,76,0.00,,,0.00,Wunderground v.1.15,2013-02-12 00:21:00,
2013-02-11 19:23:00,35.8,29.0,29.95,West,273,6.0,7.0,76,0.00,,,0.00,Wunderground v.1.15,2013-02-12 00:23:00,
2013-02-11 19:25:00,35.8,29.0,29.95,SW,235,6.0,7.0,76,0.00,,,0.00,Wunderground v.1.15,2013-02-12 00:25:00,
2013-02-11 19:27:00,35.8,29.0,29.95,WSW,254,6.0,7.0,76,0.00,,,0.00,Wunderground v.1.15,2013-02-12 00:27:00,
2013-02-11 19:29:00,35.7,28.9,29.95,WSW,252,5.0,11.0,76,0.00,,,0.00,Wunderground v.1.15,2013-02-12 00:29:00,
2013-02-11 19:30:00,35.7,28.9,29.95,WSW,246,5.0,5.0,76,0.00,,,0.00,Wunderground v.1.15,2013-02-12 00:30:00,
2013-02-11 19:32:00,35.8,29.0,29.95,SW,229,5.0,10.0,76,0.00,,,0.00,Wunderground v.1.15,2013-02-12 00:32:00,
2013-02-11 19:33:00,35.8,29.0,29.95,SW,229,5.0,10.0,76,0.00,,,0.00,Wunderground v.1.15,2013-02-12 00:33:00,
2013-02-11 19:36:00,35.9,29.1,29.95,SSW,213,6.0,12.0,76,0.00,,,0.00,Wunderground v.1.15,2013-02-12 00:36:00,
2013-02-11 19:38:00,36.0,29.2,29.95,SSW,210,6.0,12.0,76,0.00,,,0.00,Wunderground v.1.15,2013-02-12 00:38:00,
2013-02-11 19:41:00,36.0,29.2,29.95,WSW,254,6.0,9.0,76,0.00,,,0.00,Wunderground v.1.15,2013-02-12 00:41:00,
2013-02-11 19:43:00,36.0,29.2,29.95,West,267,6.0,11.0,76,0.00,,,0.00,Wunderground v.1.15,2013-02-12 00:43:00,
2013-02-11 19:46:00,36.1,29.3,29.95,WSW,251,6.0,11.0,76,0.00,,,0.00,Wunderground v.1.15,2013-02-12 00:46:00,
2013-02-11 19:47:00,36.1,29.3,29.95,SW,233,5.0,11.0,76,0.00,,,0.00,Wunderground v.1.15,2013-02-12 00:47:00,
2013-02-11 19:50:00,36.2,29.4,29.95,West,267,6.0,6.0,76,0.00,,,0.00,Wunderground v.1.15,2013-02-12 00:50:00,
2013-02-11 19:53:00,36.3,29.1,29.95,West,271,6.0,8.0,75,0.00,,,0.00,Wunderground v.1.15,2013-02-12 00:53:00,
2013-02-11 19:56:00,36.4,29.2,29.95,SW,227,6.0,8.0,75,0.00,,,0.00,Wunderground v.1.15,2013-02-12 00:56:00,
2013-02-11 19:58:00,36.5,29.3,29.95,SW,230,6.0,8.0,75,0.00,,,0.00,Wunderground v.1.15,2013-02-12 00:58:00,
2013-02-11 20:03:00,36.6,29.1,29.95,WSW,244,6.0,9.0,74,0.00,,,0.00,Wunderground v.1.15,2013-02-12 01:03:00,
2013-02-11 20:04:00,36.6,29.1,29.95,West,267,6.0,9.0,74,0.00,,,0.00,Wunderground v.1.15,2013-02-12 01:04:00,
2013-02-11 20:06:00,36.6,29.1,29.96,West,263,5.0,9.0,74,0.00,,,0.00,Wunderground v.1.15,2013-02-12 01:06:00,
2013-02-11 20:09:00,36.7,29.2,29.96,SW,236,5.0,9.0,74,0.00,,,0.00,Wunderground v.1.15,2013-02-12 01:09:00,
2013-02-11 20:10:00,36.7,29.2,29.95,SW,231,5.0,6.0,74,0.00,,,0.00,Wunderground v.1.15,2013-02-12 01:10:00,
2013-02-11 20:15:00,36.9,29.1,29.95,West,261,5.0,6.0,73,0.00,,,0.00,Wunderground v.1.15,2013-02-12 01:15:00,
2013-02-11 20:16:00,36.9,29.1,29.95,SW,229,6.0,7.0,73,0.00,,,0.00,Wunderground v.1.15,2013-02-12 01:16:00,
2013-02-11 20:20:00,37.1,28.9,29.96,SSW,203,6.0,6.0,72,0.00,,,0.00,Wunderground v.1.15,2013-02-12 01:20:00,
2013-02-11 20:21:00,37.1,28.9,29.96,West,272,6.0,6.0,72,0.00,,,0.00,Wunderground v.1.15,2013-02-12 01:21:00,
2013-02-11 20:22:00,37.2,29.0,29.96,West,260,6.0,8.0,72,0.00,,,0.00,Wunderground v.1.15,2013-02-12 01:22:00,
2013-02-11 20:27:00,37.3,28.8,29.96,WNW,285,7.0,9.0,71,0.00,,,0.00,Wunderground v.1.15,2013-02-12 01:27:00,
2013-02-11 20:28:00,37.3,28.8,29.96,WSW,257,6.0,9.0,71,0.00,,,0.00,Wunderground v.1.15,2013-02-12 01:28:00,
2013-02-11 20:29:00,37.3,28.8,29.96,West,260,6.0,9.0,71,0.00,,,0.00,Wunderground v.1.15,2013-02-12 01:29:00,
2013-02-11 20:31:00,37.3,28.8,29.96,SW,230,6.0,6.0,71,0.00,,,0.00,Wunderground v.1.15,2013-02-12 01:31:00,
2013-02-11 20:32:00,37.4,28.9,29.96,SSW,202,6.0,6.0,71,0.00,,,0.00,Wunderground v.1.15,2013-02-12 01:32:00,
2013-02-11 20:34:00,37.4,28.9,29.96,West,275,6.0,11.0,71,0.00,,,0.00,Wunderground v.1.15,2013-02-12 01:34:00,
2013-02-11 20:35:00,37.4,28.9,29.96,WSW,258,6.0,11.0,71,0.00,,,0.00,Wunderground v.1.15,2013-02-12 01:35:00,
2013-02-11 20:38:00,37.4,28.9,29.96,West,281,7.0,14.0,71,0.00,,,0.00,Wunderground v.1.15,2013-02-12 01:38:00,
2013-02-11 20:41:00,37.6,28.7,29.96,NW,306,8.0,8.0,70,0.00,,,0.00,Wunderground v.1.15,2013-02-12 01:41:00,
2013-02-11 20:42:00,37.6,28.7,29.96,SW,225,8.0,12.0,70,0.00,,,0.00,Wunderground v.1.15,2013-02-12 01:42:00,
2013-02-11 20:43:00,37.6,28.7,29.96,SW,219,8.0,12.0,70,0.00,,,0.00,Wunderground v.1.15,2013-02-12 01:43:00,
2013-02-11 20:49:00,37.7,28.8,29.97,WSW,243,8.0,12.0,70,0.00,,,0.00,Wunderground v.1.15,2013-02-12 01:49:00,
2013-02-11 20:50:00,37.7,28.8,29.97,WSW,252,8.0,8.0,70,0.00,,,0.00,Wunderground v.1.15,2013-02-12 01:50:00,
2013-02-11 20:52:00,37.7,28.4,29.96,WNW,296,8.0,9.0,69,0.00,,,0.00,Wunderground v.1.15,2013-02-12 01:52:00,
2013-02-11 20:55:00,37.8,28.5,29.97,SW,227,8.0,10.0,69,0.00,,,0.00,Wunderground v.1.15,2013-02-12 01:55:00,
2013-02-11 20:56:00,37.8,28.5,29.97,WSW,254,8.0,10.0,69,0.00,,,0.00,Wunderground v.1.15,2013-02-12 01:56:00,
2013-02-11 20:58:00,37.8,28.5,29.97,WSW,256,9.0,12.0,69,0.00,,,0.00,Wunderground v.1.15,2013-02-12 01:58:00,
2013-02-11 21:01:00,37.8,28.5,29.97,South,173,9.0,10.0,69,0.00,,,0.00,Wunderground v.1.15,2013-02-12 02:01:00,
2013-02-11 21:05:00,37.8,28.5,29.97,WSW,244,8.0,14.0,69,0.00,,,0.00,Wunderground v.1.15,2013-02-12 02:05:00,
2013-02-11 21:06:00,37.8,28.5,29.97,WSW,249,8.0,14.0,69,0.00,,,0.00,Wunderground v.1.15,2013-02-12 02:06:00,
2013-02-11 21:08:00,37.8,28.5,29.97,South,182,8.0,14.0,69,0.00,,,0.00,Wunderground v.1.15,2013-02-12 02:08:00,
2013-02-11 21:11:00,37.8,28.2,29.97,WSW,237,9.0,9.0,68,0.00,,,0.00,Wunderground v.1.15,2013-02-12 02:11:00,
2013-02-11 21:12:00,37.8,28.2,29.97,West,275,8.0,9.0,68,0.00,,,0.00,Wunderground v.1.15,2013-02-12 02:12:00,
2013-02-11 21:16:00,37.7,28.1,29.97,West,261,9.0,9.0,68,0.00,,,0.00,Wunderground v.1.15,2013-02-12 02:16:00,
2013-02-11 21:18:00,37.7,27.7,29.98,WSW,250,10.0,10.0,67,0.00,,,0.00,Wunderground v.1.15,2013-02-12 02:18:00,
2013-02-11 21:19:00,37.7,27.7,29.98,West,272,10.0,10.0,67,0.00,,,0.00,Wunderground v.1.15,2013-02-12 02:19:00,
2013-02-11 21:20:00,37.8,27.8,29.98,WSW,257,10.0,13.0,67,0.00,,,0.00,Wunderground v.1.15,2013-02-12 02:20:00,
2013-02-11 21:24:00,37.7,28.1,29.97,SW,235,10.0,13.0,68,0.00,,,0.00,Wunderground v.1.15,2013-02-12 02:24:00,
2013-02-11 21:28:00,37.6,28.0,29.98,West,275,9.0,13.0,68,0.00,,,0.00,Wunderground v.1.15,2013-02-12 02:28:00,
2013-02-11 21:29:00,37.6,28.0,29.98,SW,221,9.0,13.0,68,0.00,,,0.00,Wunderground v.1.15,2013-02-12 02:29:00,
2013-02-11 21:32:00,37.5,27.9,29.98,SW,226,9.0,9.0,68,0.00,,,0.00,Wunderground v.1.15,2013-02-12 02:32:00,
2013-02-11 21:35:00,37.4,27.8,29.98,SW,229,9.0,12.0,68,0.00,,,0.00,Wunderground v.1.15,2013-02-12 02:35:00,
2013-02-11 21:37:00,37.4,28.2,29.98,WSW,250,8.0,12.0,69,0.00,,,0.00,Wunderground v.1.15,2013-02-12 02:37:00,
2013-02-11 21:38:00,37.4,28.2,29.98,WSW,248,8.0,12.0,69,0.00,,,0.00,Wunderground v.1.15,2013-02-12 02:38:00,
2013-02-11 21:40:00,37.3,28.1,29.99,WNW,296,7.0,7.0,69,0.00,,,0.00,Wunderground v.1.15,2013-02-12 02:40:00,
2013-02-11 21:44:00,37.2,28.0,29.99,West,264,7.0,10.0,69,0.00,,,0.00,Wunderground v.1.15,2013-02-12 02:44:00,
2013-02-11 21:45:00,37.2,28.0,29.98,NW,318,7.0,10.0,69,0.00,,,0.00,Wunderground v.1.15,2013-02-12 02:45:00,
2013-02-11 21:47:00,37.1,27.9,29.98,West,275,7.0,12.0,69,0.00,,,0.00,Wunderground v.1.15,2013-02-12 02:47:00,
2013-02-11 21:50:00,37.1,28.2,29.98,WNW,282,7.0,7.0,70,0.00,,,0.00,Wunderground v.1.15,2013-02-12 02:50:00,
2013-02-11 21:52:00,37.1,28.2,29.98,WSW,257,7.0,10.0,70,0.00,,,0.00,Wunderground v.1.15,2013-02-12 02:52:00,
2013-02-11 21:55:00,37.0,28.1,29.98,NW,311,6.0,10.0,70,0.00,,,0.00,Wunderground v.1.15,2013-02-12 02:55:00,
2013-02-11 21:56:00,37.0,28.1,29.98,WSW,240,6.0,10.0,70,0.00,,,0.00,Wunderground v.1.15,2013-02-12 02:56:00,
2013-02-11 21:58:00,36.9,28.0,29.98,West,267,5.0,10.0,70,0.00,,,0.00,Wunderground v.1.15,2013-02-12 02:58:00,
2013-02-11 22:00:00,36.9,28.0,29.98,NW,309,5.0,9.0,70,0.00,,,0.00,Wunderground v.1.15,2013-02-12 03:00:00,
2013-02-11 22:02:00,36.9,28.0,29.98,WSW,258,5.0,9.0,70,0.00,,,0.00,Wunderground v.1.15,2013-02-12 03:02:00,
2013-02-11 22:04:00,36.9,28.4,29.98,SW,236,6.0,9.0,71,0.00,,,0.00,Wunderground v.1.15,2013-02-12 03:04:00,
2013-02-11 22:08:00,36.9,28.4,29.98,West,277,6.0,9.0,71,0.00,,,0.00,Wunderground v.1.15,2013-02-12 03:08:00,
2013-02-11 22:10:00,36.8,28.3,29.98,WNW,302,6.0,8.0,71,0.00,,,0.00,Wunderground v.1.15,2013-02-12 03:10:00,
2013-02-11 22:12:00,36.8,28.3,29.98,WNW,302,6.0,8.0,71,0.00,,,0.00,Wunderground v.1.15,2013-02-12 03:12:00,
2013-02-11 22:13:00,36.8,28.3,29.98,SW,222,6.0,8.0,71,0.00,,,0.00,Wunderground v.1.15,2013-02-12 03:13:00,
2013-02-11 22:14:00,36.8,28.3,29.98,WNW,292,6.0,8.0,71,0.00,,,0.00,Wunderground v.1.15,2013-02-12 03:14:00,
2013-02-11 22:18:00,36.9,28.4,29.98,West,267,6.0,8.0,71,0.00,,,0.00,Wunderground v.1.15,2013-02-12 03:18:00,
2013-02-11 22:21:00,36.9,28.4,29.98,WNW,292,6.0,10.0,71,0.00,,,0.00,Wunderground v.1.15,2013-02-12 03:21:00,
2013-02-11 22:22:00,36.9,28.7,29.98,SW,227,6.0,10.0,72,0.00,,,0.00,Wunderground v.1.15,2013-02-12 03:22:00,
2013-02-11 22:23:00,36.9,28.7,29.99,West,280,6.0,10.0,72,0.00,,,0.00,Wunderground v.1.15,2013-02-12 03:23:00,
2013-02-11 22:24:00,36.9,28.7,29.99,WSW,255,6.0,10.0,72,0.00,,,0.00,Wunderground v.1.15,2013-02-12 03:24:00,
2013-02-11 22:38:00,37.0,28.8,30.00,West,270,7.0,7.0,72,0.00,,,0.00,Wunderground v.1.15,2013-02-12 03:38:00,
2013-02-11 22:39:00,37.0,28.8,30.00,WSW,254,7.0,7.0,72,0.00,,,0.00,Wunderground v.1.15,2013-02-12 03:39:00,
2013-02-11 22:40:00,37.0,28.8,30.00,SSW,196,6.0,7.0,72,0.00,,,0.00,Wunderground v.1.15,2013-02-12 03:40:00,
2013-02-11 22:45:00,36.9,28.7,30.00,West,273,6.0,10.0,72,0.00,,,0.00,Wunderground v.1.15,2013-02-12 03:45:00,
2013-02-11 22:46:00,36.9,28.4,30.00,WSW,238,6.0,10.0,71,0.00,,,0.00,Wunderground v.1.15,2013-02-12 03:46:00,
2013-02-11 22:49:00,37.0,28.5,30.00,WSW,257,6.0,6.0,71,0.00,,,0.00,Wunderground v.1.15,2013-02-12 03:49:00,
2013-02-11 22:50:00,37.0,28.5,30.00,WSW,254,6.0,6.0,71,0.00,,,0.00,Wunderground v.1.15,2013-02-12 03:50:00,
2013-02-11 22:51:00,37.0,28.5,30.00,West,271,6.0,9.0,71,0.00,,,0.00,Wunderground v.1.15,2013-02-12 03:51:00,
2013-02-11 22:54:00,36.9,28.4,30.00,WSW,242,6.0,10.0,71,0.00,,,0.00,Wunderground v.1.15,2013-02-12 03:54:00,
2013-02-11 22:55:00,36.9,28.4,30.00,WSW,252,6.0,10.0,71,0.00,,,0.00,Wunderground v.1.15,2013-02-12 03:55:00,
2013-02-11 22:58:00,36.9,28.7,30.00,NW,317,5.0,5.0,72,0.00,,,0.00,Wunderground v.1.15,2013-02-12 03:58:00,
2013-02-11 23:01:00,36.8,28.6,30.00,West,265,5.0,6.0,72,0.00,,,0.00,Wunderground v.1.15,2013-02-12 04:01:00,
2013-02-11 23:04:00,36.8,28.6,30.00,West,269,5.0,7.0,72,0.00,,,0.00,Wunderground v.1.15,2013-02-12 04:04:00,
2013-02-11 23:05:00,36.8,28.6,30.00,SSW,194,5.0,7.0,72,0.00,,,0.00,Wunderground v.1.15,2013-02-12 04:05:00,
2013-02-11 23:06:00,36.8,28.6,30.00,West,267,5.0,9.0,72,0.00,,,0.00,Wunderground v.1.15,2013-02-12 04:06:00,
2013-02-11 23:09:00,36.8,28.6,30.00,West,279,5.0,9.0,72,0.00,,,0.00,Wunderground v.1.15,2013-02-12 04:09:00,
2013-02-11 23:11:00,36.7,28.5,30.00,SW,214,5.0,5.0,72,0.00,,,0.00,Wunderground v.1.15,2013-02-12 04:11:00,
2013-02-11 23:13:00,36.7,28.5,30.00,West,264,4.0,6.0,72,0.00,,,0.00,Wunderground v.1.15,2013-02-12 04:13:00,
2013-02-11 23:17:00,36.7,28.5,30.00,West,265,5.0,10.0,72,0.00,,,0.00,Wunderground v.1.15,2013-02-12 04:17:00,
2013-02-11 23:18:00,36.7,28.5,30.00,West,277,5.0,10.0,72,0.00,,,0.00,Wunderground v.1.15,2013-02-12 04:18:00,
2013-02-11 23:23:00,36.7,28.5,30.00,West,268,6.0,9.0,72,0.00,,,0.00,Wunderground v.1.15,2013-02-12 04:23:00,
2013-02-11 23:26:00,36.6,28.4,30.01,WSW,257,5.0,9.0,72,0.00,,,0.00,Wunderground v.1.15,2013-02-12 04:26:00,
2013-02-11 23:27:00,36.6,28.4,30.00,West,264,5.0,9.0,72,0.00,,,0.00,Wunderground v.1.15,2013-02-12 04:27:00,
2013-02-11 23:28:00,36.6,28.8,30.00,West,265,5.0,9.0,73,0.00,,,0.00,Wunderground v.1.15,2013-02-12 04:28:00,
2013-02-11 23:32:00,36.5,28.7,30.01,WSW,257,3.0,9.0,73,0.00,,,0.00,Wunderground v.1.15,2013-02-12 04:32:00,
2013-02-11 23:34:00,36.5,28.7,30.01,SW,222,3.0,9.0,73,0.00,,,0.00,Wunderground v.1.15,2013-02-12 04:34:00,
2013-02-11 23:37:00,36.4,28.6,30.01,West,265,3.0,9.0,73,0.00,,,0.00,Wunderground v.1.15,2013-02-12 04:37:00,
2013-02-11 23:39:00,36.4,28.6,30.01,SW,227,4.0,9.0,73,0.00,,,0.00,Wunderground v.1.15,2013-02-12 04:39:00,
2013-02-11 23:40:00,36.4,28.6,30.01,WNW,284,5.0,6.0,73,0.00,,,0.00,Wunderground v.1.15,2013-02-12 04:40:00,
2013-02-11 23:42:00,36.4,28.6,30.01,WSW,250,5.0,6.0,73,0.00,,,0.00,Wunderground v.1.15,2013-02-12 04:42:00,
2013-02-11 23:45:00,36.4,28.9,30.01,West,259,5.0,6.0,74,0.00,,,0.00,Wunderground v.1.15,2013-02-12 04:45:00,
2013-02-11 23:47:00,36.4,28.9,30.01,SW,232,5.0,11.0,74,0.00,,,0.00,Wunderground v.1.15,2013-02-12 04:47:00,
2013-02-11 23:49:00,36.4,28.9,30.01,West,267,5.0,11.0,74,0.00,,,0.00,Wunderground v.1.15,2013-02-12 04:49:00,
2013-02-11 23:53:00,36.3,28.8,30.01,West,269,5.0,7.0,74,0.00,,,0.00,Wunderground v.1.15,2013-02-12 04:53:00,
2013-02-11 23:54:00,36.3,28.8,30.01,SW,226,5.0,7.0,74,0.00,,,0.00,Wunderground v.1.15,2013-02-12 04:54:00,
2013-02-11 23:55:00,36.3,28.8,30.01,West,265,5.0,7.0,74,0.00,,,0.00,Wunderground v.1.15,2013-02-12 04:55:00,
2013-02-11 23:59:00,36.2,29.0,30.01,West,267,4.0,7.0,75,0.00,,,0.00,Wunderground v.1.15,2013-02-12 04:59:00,